<?xml version="1.0" encoding="UTF-8" standalone="no" ?><gpx xmlns="http://www.topografix.com/GPX/1/1" xmlns:gpxx="http://www.garmin.com/xmlschemas/GpxExtensions/v3" xmlns:wptx1="http://www.garmin.com/xmlschemas/WaypointExtension/v1" xmlns:gpxtpx="http://www.garmin.com/xmlschemas/TrackPointExtension/v1" creator="GuideVTT.com" version="1.1" xmlns:xsi="http://www.w3.org/2001/XMLSchema-instance" xsi:schemaLocation="http://www.topografix.com/GPX/1/1 http://www.topografix.com/GPX/1/1/gpx.xsd http://www.garmin.com/xmlschemas/GpxExtensions/v3 http://www8.garmin.com/xmlschemas/GpxExtensionsv3.xsd http://www.garmin.com/xmlschemas/WaypointExtension/v1 http://www8.garmin.com/xmlschemas/WaypointExtensionv1.xsd http://www.garmin.com/xmlschemas/TrackPointExtension/v1 http://www.garmin.com/xmlschemas/TrackPointExtensionv1.xsd">
<metadata><link href="http://www.garmin.com"><text>Garmin International</text></link><time>2013-06-22T15:13:50Z</time></metadata>
<trk><name>colla_san_giacomo.gpx</name><extensions><gpxx:TrackExtension><gpxx:DisplayColor>Cyan</gpxx:DisplayColor></gpxx:TrackExtension></extensions><trkseg>
<trkpt lat="44.1761225" lon="8.3289547"><ele></ele><time>2014-8-28T15:36:43Z</time></trkpt>
<trkpt lat="44.1761147" lon="8.3289527"><ele></ele><time>2014-8-28T15:36:46Z</time></trkpt>
<trkpt lat="44.1761156" lon="8.3289574"><ele></ele><time>2014-8-28T15:36:49Z</time></trkpt>
<trkpt lat="44.1761147" lon="8.3289621"><ele></ele><time>2014-8-28T15:36:52Z</time></trkpt>
<trkpt lat="44.1761214" lon="8.3289571"><ele></ele><time>2014-8-28T15:36:55Z</time></trkpt>
<trkpt lat="44.1761169" lon="8.3289528"><ele></ele><time>2014-8-28T15:36:58Z</time></trkpt>
<trkpt lat="44.1761137" lon="8.3289568"><ele></ele><time>2014-8-28T15:37:1Z</time></trkpt>
<trkpt lat="44.1760209" lon="8.3290088"><ele></ele><time>2014-8-28T15:37:4Z</time></trkpt>
<trkpt lat="44.1760188" lon="8.3290080"><ele></ele><time>2014-8-28T15:37:7Z</time></trkpt>
<trkpt lat="44.1760964" lon="8.3289742"><ele></ele><time>2014-8-28T15:37:10Z</time></trkpt>
<trkpt lat="44.1760836" lon="8.3291865"><ele></ele><time>2014-8-28T15:37:13Z</time></trkpt>
<trkpt lat="44.1761396" lon="8.3290782"><ele></ele><time>2014-8-28T15:37:16Z</time></trkpt>
<trkpt lat="44.1760790" lon="8.3290291"><ele></ele><time>2014-8-28T15:37:19Z</time></trkpt>
<trkpt lat="44.1760920" lon="8.3290123"><ele></ele><time>2014-8-28T15:37:22Z</time></trkpt>
<trkpt lat="44.1763912" lon="8.3291189"><ele></ele><time>2014-8-28T15:37:25Z</time></trkpt>
<trkpt lat="44.1767814" lon="8.3292570"><ele></ele><time>2014-8-28T15:37:28Z</time></trkpt>
<trkpt lat="44.1772745" lon="8.3293387"><ele></ele><time>2014-8-28T15:37:31Z</time></trkpt>
<trkpt lat="44.1776152" lon="8.3289062"><ele></ele><time>2014-8-28T15:37:34Z</time></trkpt>
<trkpt lat="44.1779359" lon="8.3289087"><ele></ele><time>2014-8-28T15:37:37Z</time></trkpt>
<trkpt lat="44.1781862" lon="8.3289766"><ele></ele><time>2014-8-28T15:37:40Z</time></trkpt>
<trkpt lat="44.1787225" lon="8.3291211"><ele></ele><time>2014-8-28T15:37:43Z</time></trkpt>
<trkpt lat="44.1791523" lon="8.3290683"><ele></ele><time>2014-8-28T15:37:46Z</time></trkpt>
<trkpt lat="44.1793683" lon="8.3288109"><ele></ele><time>2014-8-28T15:37:49Z</time></trkpt>
<trkpt lat="44.1791713" lon="8.3281684"><ele></ele><time>2014-8-28T15:37:52Z</time></trkpt>
<trkpt lat="44.1791630" lon="8.3277073"><ele></ele><time>2014-8-28T15:37:55Z</time></trkpt>
<trkpt lat="44.1793528" lon="8.3273312"><ele></ele><time>2014-8-28T15:37:58Z</time></trkpt>
<trkpt lat="44.1795852" lon="8.3269573"><ele></ele><time>2014-8-28T15:38:1Z</time></trkpt>
<trkpt lat="44.1798071" lon="8.3265824"><ele></ele><time>2014-8-28T15:38:4Z</time></trkpt>
<trkpt lat="44.1798744" lon="8.3265389"><ele></ele><time>2014-8-28T15:38:7Z</time></trkpt>
<trkpt lat="44.1803126" lon="8.3265979"><ele></ele><time>2014-8-28T15:38:10Z</time></trkpt>
<trkpt lat="44.1806292" lon="8.3265737"><ele></ele><time>2014-8-28T15:38:13Z</time></trkpt>
<trkpt lat="44.1808525" lon="8.3261001"><ele></ele><time>2014-8-28T15:38:16Z</time></trkpt>
<trkpt lat="44.1811416" lon="8.3259541"><ele></ele><time>2014-8-28T15:38:19Z</time></trkpt>
<trkpt lat="44.1814000" lon="8.3260777"><ele></ele><time>2014-8-28T15:38:22Z</time></trkpt>
<trkpt lat="44.1817059" lon="8.3262641"><ele></ele><time>2014-8-28T15:38:25Z</time></trkpt>
<trkpt lat="44.1819268" lon="8.3263405"><ele></ele><time>2014-8-28T15:38:28Z</time></trkpt>
<trkpt lat="44.1821428" lon="8.3266278"><ele></ele><time>2014-8-28T15:38:31Z</time></trkpt>
<trkpt lat="44.1824251" lon="8.3269824"><ele></ele><time>2014-8-28T15:38:34Z</time></trkpt>
<trkpt lat="44.1827158" lon="8.3272504"><ele></ele><time>2014-8-28T15:38:37Z</time></trkpt>
<trkpt lat="44.1829559" lon="8.3270169"><ele></ele><time>2014-8-28T15:38:40Z</time></trkpt>
<trkpt lat="44.1832734" lon="8.3267269"><ele></ele><time>2014-8-28T15:38:43Z</time></trkpt>
<trkpt lat="44.1838289" lon="8.3266768"><ele></ele><time>2014-8-28T15:38:46Z</time></trkpt>
<trkpt lat="44.1840278" lon="8.3266887"><ele></ele><time>2014-8-28T15:38:49Z</time></trkpt>
<trkpt lat="44.1843096" lon="8.3268435"><ele></ele><time>2014-8-28T15:38:52Z</time></trkpt>
<trkpt lat="44.1844985" lon="8.3271725"><ele></ele><time>2014-8-28T15:38:55Z</time></trkpt>
<trkpt lat="44.1848818" lon="8.3275479"><ele></ele><time>2014-8-28T15:38:58Z</time></trkpt>
<trkpt lat="44.1853980" lon="8.3279093"><ele></ele><time>2014-8-28T15:39:1Z</time></trkpt>
<trkpt lat="44.1855886" lon="8.3279645"><ele></ele><time>2014-8-28T15:39:4Z</time></trkpt>
<trkpt lat="44.1861219" lon="8.3280625"><ele></ele><time>2014-8-28T15:39:7Z</time></trkpt>
<trkpt lat="44.1864845" lon="8.3281824"><ele></ele><time>2014-8-28T15:39:10Z</time></trkpt>
<trkpt lat="44.1866824" lon="8.3280873"><ele></ele><time>2014-8-28T15:39:13Z</time></trkpt>
<trkpt lat="44.1872509" lon="8.3277945"><ele></ele><time>2014-8-28T15:39:16Z</time></trkpt>
<trkpt lat="44.1876658" lon="8.3275438"><ele></ele><time>2014-8-28T15:39:19Z</time></trkpt>
<trkpt lat="44.1881574" lon="8.3271952"><ele></ele><time>2014-8-28T15:39:22Z</time></trkpt>
<trkpt lat="44.1885335" lon="8.3270389"><ele></ele><time>2014-8-28T15:39:25Z</time></trkpt>
<trkpt lat="44.1888996" lon="8.3271670"><ele></ele><time>2014-8-28T15:39:28Z</time></trkpt>
<trkpt lat="44.1893623" lon="8.3271989"><ele></ele><time>2014-8-28T15:39:31Z</time></trkpt>
<trkpt lat="44.1898373" lon="8.3271834"><ele></ele><time>2014-8-28T15:39:34Z</time></trkpt>
<trkpt lat="44.1902743" lon="8.3272905"><ele></ele><time>2014-8-28T15:39:37Z</time></trkpt>
<trkpt lat="44.1906469" lon="8.3273806"><ele></ele><time>2014-8-28T15:39:40Z</time></trkpt>
<trkpt lat="44.1910329" lon="8.3274693"><ele></ele><time>2014-8-28T15:39:43Z</time></trkpt>
<trkpt lat="44.1912064" lon="8.3274428"><ele></ele><time>2014-8-28T15:39:46Z</time></trkpt>
<trkpt lat="44.1917713" lon="8.3274365"><ele></ele><time>2014-8-28T15:39:49Z</time></trkpt>
<trkpt lat="44.1922134" lon="8.3274159"><ele></ele><time>2014-8-28T15:39:52Z</time></trkpt>
<trkpt lat="44.1926686" lon="8.3273105"><ele></ele><time>2014-8-28T15:39:55Z</time></trkpt>
<trkpt lat="44.1930850" lon="8.3271921"><ele></ele><time>2014-8-28T15:39:58Z</time></trkpt>
<trkpt lat="44.1935545" lon="8.3270722"><ele></ele><time>2014-8-28T15:40:1Z</time></trkpt>
<trkpt lat="44.1939351" lon="8.3270346"><ele></ele><time>2014-8-28T15:40:4Z</time></trkpt>
<trkpt lat="44.1943724" lon="8.3272409"><ele></ele><time>2014-8-28T15:40:7Z</time></trkpt>
<trkpt lat="44.1947955" lon="8.3273677"><ele></ele><time>2014-8-28T15:40:10Z</time></trkpt>
<trkpt lat="44.1952645" lon="8.3273634"><ele></ele><time>2014-8-28T15:40:13Z</time></trkpt>
<trkpt lat="44.1952752" lon="8.3273330"><ele></ele><time>2014-8-28T15:40:16Z</time></trkpt>
<trkpt lat="44.1954666" lon="8.3272594"><ele></ele><time>2014-8-28T15:40:19Z</time></trkpt>
<trkpt lat="44.1959654" lon="8.3268607"><ele></ele><time>2014-8-28T15:40:22Z</time></trkpt>
<trkpt lat="44.1964399" lon="8.3267879"><ele></ele><time>2014-8-28T15:40:25Z</time></trkpt>
<trkpt lat="44.1969293" lon="8.3267969"><ele></ele><time>2014-8-28T15:40:28Z</time></trkpt>
<trkpt lat="44.1974345" lon="8.3267906"><ele></ele><time>2014-8-28T15:40:31Z</time></trkpt>
<trkpt lat="44.1979686" lon="8.3269523"><ele></ele><time>2014-8-28T15:40:34Z</time></trkpt>
<trkpt lat="44.1984233" lon="8.3272263"><ele></ele><time>2014-8-28T15:40:37Z</time></trkpt>
<trkpt lat="44.1988329" lon="8.3274113"><ele></ele><time>2014-8-28T15:40:40Z</time></trkpt>
<trkpt lat="44.1992925" lon="8.3276636"><ele></ele><time>2014-8-28T15:40:43Z</time></trkpt>
<trkpt lat="44.1996294" lon="8.3277063"><ele></ele><time>2014-8-28T15:40:46Z</time></trkpt>
<trkpt lat="44.2001064" lon="8.3274809"><ele></ele><time>2014-8-28T15:40:49Z</time></trkpt>
<trkpt lat="44.2004969" lon="8.3275112"><ele></ele><time>2014-8-28T15:40:52Z</time></trkpt>
<trkpt lat="44.2009228" lon="8.3276708"><ele></ele><time>2014-8-28T15:40:55Z</time></trkpt>
<trkpt lat="44.2013677" lon="8.3277877"><ele></ele><time>2014-8-28T15:40:58Z</time></trkpt>
<trkpt lat="44.2017599" lon="8.3277127"><ele></ele><time>2014-8-28T15:41:1Z</time></trkpt>
<trkpt lat="44.2017843" lon="8.3276593"><ele></ele><time>2014-8-28T15:41:4Z</time></trkpt>
<trkpt lat="44.2017985" lon="8.3276360"><ele></ele><time>2014-8-28T15:41:7Z</time></trkpt>
<trkpt lat="44.2019673" lon="8.3276407"><ele></ele><time>2014-8-28T15:41:10Z</time></trkpt>
<trkpt lat="44.2022856" lon="8.3275639"><ele></ele><time>2014-8-28T15:41:13Z</time></trkpt>
<trkpt lat="44.2025301" lon="8.3275900"><ele></ele><time>2014-8-28T15:41:16Z</time></trkpt>
<trkpt lat="44.2026573" lon="8.3275449"><ele></ele><time>2014-8-28T15:41:19Z</time></trkpt>
<trkpt lat="44.2027456" lon="8.3275144"><ele></ele><time>2014-8-28T15:41:22Z</time></trkpt>
<trkpt lat="44.2030159" lon="8.3275848"><ele></ele><time>2014-8-28T15:41:25Z</time></trkpt>
<trkpt lat="44.2032982" lon="8.3276662"><ele></ele><time>2014-8-28T15:41:28Z</time></trkpt>
<trkpt lat="44.2035784" lon="8.3278717"><ele></ele><time>2014-8-28T15:41:31Z</time></trkpt>
<trkpt lat="44.2040162" lon="8.3281001"><ele></ele><time>2014-8-28T15:41:34Z</time></trkpt>
<trkpt lat="44.2043807" lon="8.3280945"><ele></ele><time>2014-8-28T15:41:37Z</time></trkpt>
<trkpt lat="44.2047841" lon="8.3280923"><ele></ele><time>2014-8-28T15:41:40Z</time></trkpt>
<trkpt lat="44.2050263" lon="8.3280437"><ele></ele><time>2014-8-28T15:41:43Z</time></trkpt>
<trkpt lat="44.2052813" lon="8.3280577"><ele></ele><time>2014-8-28T15:41:46Z</time></trkpt>
<trkpt lat="44.2055314" lon="8.3280328"><ele></ele><time>2014-8-28T15:41:49Z</time></trkpt>
<trkpt lat="44.2057882" lon="8.3280230"><ele></ele><time>2014-8-28T15:41:52Z</time></trkpt>
<trkpt lat="44.2060791" lon="8.3279239"><ele></ele><time>2014-8-28T15:41:55Z</time></trkpt>
<trkpt lat="44.2063500" lon="8.3278239"><ele></ele><time>2014-8-28T15:41:58Z</time></trkpt>
<trkpt lat="44.2065959" lon="8.3276781"><ele></ele><time>2014-8-28T15:42:1Z</time></trkpt>
<trkpt lat="44.2068603" lon="8.3274952"><ele></ele><time>2014-8-28T15:42:4Z</time></trkpt>
<trkpt lat="44.2071061" lon="8.3273532"><ele></ele><time>2014-8-28T15:42:7Z</time></trkpt>
<trkpt lat="44.2073808" lon="8.3271112"><ele></ele><time>2014-8-28T15:42:10Z</time></trkpt>
<trkpt lat="44.2075642" lon="8.3268334"><ele></ele><time>2014-8-28T15:42:13Z</time></trkpt>
<trkpt lat="44.2077631" lon="8.3264556"><ele></ele><time>2014-8-28T15:42:16Z</time></trkpt>
<trkpt lat="44.2079231" lon="8.3261535"><ele></ele><time>2014-8-28T15:42:19Z</time></trkpt>
<trkpt lat="44.2081225" lon="8.3258726"><ele></ele><time>2014-8-28T15:42:22Z</time></trkpt>
<trkpt lat="44.2083447" lon="8.3256234"><ele></ele><time>2014-8-28T15:42:25Z</time></trkpt>
<trkpt lat="44.2086099" lon="8.3257485"><ele></ele><time>2014-8-28T15:42:28Z</time></trkpt>
<trkpt lat="44.2088623" lon="8.3257984"><ele></ele><time>2014-8-28T15:42:31Z</time></trkpt>
<trkpt lat="44.2089814" lon="8.3257800"><ele></ele><time>2014-8-28T15:42:34Z</time></trkpt>
<trkpt lat="44.2091005" lon="8.3257723"><ele></ele><time>2014-8-28T15:42:37Z</time></trkpt>
<trkpt lat="44.2093688" lon="8.3257146"><ele></ele><time>2014-8-28T15:42:40Z</time></trkpt>
<trkpt lat="44.2094440" lon="8.3257132"><ele></ele><time>2014-8-28T15:42:43Z</time></trkpt>
<trkpt lat="44.2095142" lon="8.3257415"><ele></ele><time>2014-8-28T15:42:46Z</time></trkpt>
<trkpt lat="44.2097304" lon="8.3259115"><ele></ele><time>2014-8-28T15:42:49Z</time></trkpt>
<trkpt lat="44.2099484" lon="8.3261464"><ele></ele><time>2014-8-28T15:42:52Z</time></trkpt>
<trkpt lat="44.2101157" lon="8.3264363"><ele></ele><time>2014-8-28T15:42:55Z</time></trkpt>
<trkpt lat="44.2102842" lon="8.3266118"><ele></ele><time>2014-8-28T15:42:58Z</time></trkpt>
<trkpt lat="44.2105121" lon="8.3266982"><ele></ele><time>2014-8-28T15:43:1Z</time></trkpt>
<trkpt lat="44.2107482" lon="8.3268264"><ele></ele><time>2014-8-28T15:43:4Z</time></trkpt>
<trkpt lat="44.2109098" lon="8.3270833"><ele></ele><time>2014-8-28T15:43:7Z</time></trkpt>
<trkpt lat="44.2109743" lon="8.3273718"><ele></ele><time>2014-8-28T15:43:10Z</time></trkpt>
<trkpt lat="44.2109343" lon="8.3276796"><ele></ele><time>2014-8-28T15:43:13Z</time></trkpt>
<trkpt lat="44.2109441" lon="8.3281673"><ele></ele><time>2014-8-28T15:43:16Z</time></trkpt>
<trkpt lat="44.2110362" lon="8.3285093"><ele></ele><time>2014-8-28T15:43:19Z</time></trkpt>
<trkpt lat="44.2113109" lon="8.3285487"><ele></ele><time>2014-8-28T15:43:22Z</time></trkpt>
<trkpt lat="44.2116440" lon="8.3284914"><ele></ele><time>2014-8-28T15:43:25Z</time></trkpt>
<trkpt lat="44.2119449" lon="8.3285327"><ele></ele><time>2014-8-28T15:43:28Z</time></trkpt>
<trkpt lat="44.2121392" lon="8.3287656"><ele></ele><time>2014-8-28T15:43:31Z</time></trkpt>
<trkpt lat="44.2121387" lon="8.3287670"><ele></ele><time>2014-8-28T15:43:34Z</time></trkpt>
<trkpt lat="44.2121193" lon="8.3287056"><ele></ele><time>2014-8-28T15:43:37Z</time></trkpt>
<trkpt lat="44.2121475" lon="8.3287751"><ele></ele><time>2014-8-28T15:43:40Z</time></trkpt>
<trkpt lat="44.2124706" lon="8.3288342"><ele></ele><time>2014-8-28T15:43:43Z</time></trkpt>
<trkpt lat="44.2127339" lon="8.3284940"><ele></ele><time>2014-8-28T15:43:46Z</time></trkpt>
<trkpt lat="44.2129814" lon="8.3285084"><ele></ele><time>2014-8-28T15:43:49Z</time></trkpt>
<trkpt lat="44.2131668" lon="8.3289221"><ele></ele><time>2014-8-28T15:43:52Z</time></trkpt>
<trkpt lat="44.2133347" lon="8.3292108"><ele></ele><time>2014-8-28T15:43:55Z</time></trkpt>
<trkpt lat="44.2136761" lon="8.3293201"><ele></ele><time>2014-8-28T15:43:58Z</time></trkpt>
<trkpt lat="44.2140821" lon="8.3292976"><ele></ele><time>2014-8-28T15:44:1Z</time></trkpt>
<trkpt lat="44.2143815" lon="8.3294948"><ele></ele><time>2014-8-28T15:44:4Z</time></trkpt>
<trkpt lat="44.2147105" lon="8.3296481"><ele></ele><time>2014-8-28T15:44:7Z</time></trkpt>
<trkpt lat="44.2150384" lon="8.3296333"><ele></ele><time>2014-8-28T15:44:10Z</time></trkpt>
<trkpt lat="44.2154185" lon="8.3295666"><ele></ele><time>2014-8-28T15:44:13Z</time></trkpt>
<trkpt lat="44.2156990" lon="8.3294775"><ele></ele><time>2014-8-28T15:44:16Z</time></trkpt>
<trkpt lat="44.2158921" lon="8.3296806"><ele></ele><time>2014-8-28T15:44:19Z</time></trkpt>
<trkpt lat="44.2159555" lon="8.3302371"><ele></ele><time>2014-8-28T15:44:22Z</time></trkpt>
<trkpt lat="44.2160511" lon="8.3306175"><ele></ele><time>2014-8-28T15:44:25Z</time></trkpt>
<trkpt lat="44.2161341" lon="8.3311061"><ele></ele><time>2014-8-28T15:44:28Z</time></trkpt>
<trkpt lat="44.2161504" lon="8.3316289"><ele></ele><time>2014-8-28T15:44:31Z</time></trkpt>
<trkpt lat="44.2161411" lon="8.3317836"><ele></ele><time>2014-8-28T15:44:34Z</time></trkpt>
<trkpt lat="44.2161290" lon="8.3319464"><ele></ele><time>2014-8-28T15:44:37Z</time></trkpt>
<trkpt lat="44.2161267" lon="8.3320297"><ele></ele><time>2014-8-28T15:44:40Z</time></trkpt>
<trkpt lat="44.2161605" lon="8.3322058"><ele></ele><time>2014-8-28T15:44:43Z</time></trkpt>
<trkpt lat="44.2162624" lon="8.3325685"><ele></ele><time>2014-8-28T15:44:46Z</time></trkpt>
<trkpt lat="44.2163253" lon="8.3328634"><ele></ele><time>2014-8-28T15:44:49Z</time></trkpt>
<trkpt lat="44.2164015" lon="8.3331886"><ele></ele><time>2014-8-28T15:44:52Z</time></trkpt>
<trkpt lat="44.2164636" lon="8.3334383"><ele></ele><time>2014-8-28T15:44:55Z</time></trkpt>
<trkpt lat="44.2164669" lon="8.3335750"><ele></ele><time>2014-8-28T15:44:58Z</time></trkpt>
<trkpt lat="44.2165003" lon="8.3336355"><ele></ele><time>2014-8-28T15:45:1Z</time></trkpt>
<trkpt lat="44.2165563" lon="8.3338827"><ele></ele><time>2014-8-28T15:45:4Z</time></trkpt>
<trkpt lat="44.2165418" lon="8.3342760"><ele></ele><time>2014-8-28T15:45:7Z</time></trkpt>
<trkpt lat="44.2165116" lon="8.3347085"><ele></ele><time>2014-8-28T15:45:10Z</time></trkpt>
<trkpt lat="44.2163821" lon="8.3350545"><ele></ele><time>2014-8-28T15:45:13Z</time></trkpt>
<trkpt lat="44.2162455" lon="8.3353793"><ele></ele><time>2014-8-28T15:45:16Z</time></trkpt>
<trkpt lat="44.2161748" lon="8.3357334"><ele></ele><time>2014-8-28T15:45:19Z</time></trkpt>
<trkpt lat="44.2161865" lon="8.3362437"><ele></ele><time>2014-8-28T15:45:22Z</time></trkpt>
<trkpt lat="44.2161118" lon="8.3365007"><ele></ele><time>2014-8-28T15:45:25Z</time></trkpt>
<trkpt lat="44.2159726" lon="8.3368870"><ele></ele><time>2014-8-28T15:45:28Z</time></trkpt>
<trkpt lat="44.2159553" lon="8.3373208"><ele></ele><time>2014-8-28T15:45:31Z</time></trkpt>
<trkpt lat="44.2160826" lon="8.3375036"><ele></ele><time>2014-8-28T15:45:34Z</time></trkpt>
<trkpt lat="44.2162833" lon="8.3376926"><ele></ele><time>2014-8-28T15:45:37Z</time></trkpt>
<trkpt lat="44.2164038" lon="8.3377234"><ele></ele><time>2014-8-28T15:45:40Z</time></trkpt>
<trkpt lat="44.2167003" lon="8.3376978"><ele></ele><time>2014-8-28T15:45:43Z</time></trkpt>
<trkpt lat="44.2170277" lon="8.3378959"><ele></ele><time>2014-8-28T15:45:46Z</time></trkpt>
<trkpt lat="44.2172015" lon="8.3381097"><ele></ele><time>2014-8-28T15:45:49Z</time></trkpt>
<trkpt lat="44.2174375" lon="8.3383976"><ele></ele><time>2014-8-28T15:45:52Z</time></trkpt>
<trkpt lat="44.2177394" lon="8.3387565"><ele></ele><time>2014-8-28T15:45:55Z</time></trkpt>
<trkpt lat="44.2179668" lon="8.3389717"><ele></ele><time>2014-8-28T15:45:58Z</time></trkpt>
<trkpt lat="44.2182579" lon="8.3393717"><ele></ele><time>2014-8-28T15:46:1Z</time></trkpt>
<trkpt lat="44.2185906" lon="8.3394721"><ele></ele><time>2014-8-28T15:46:4Z</time></trkpt>
<trkpt lat="44.2188947" lon="8.3394680"><ele></ele><time>2014-8-28T15:46:7Z</time></trkpt>
<trkpt lat="44.2192521" lon="8.3394395"><ele></ele><time>2014-8-28T15:46:10Z</time></trkpt>
<trkpt lat="44.2194911" lon="8.3393864"><ele></ele><time>2014-8-28T15:46:13Z</time></trkpt>
<trkpt lat="44.2195467" lon="8.3393331"><ele></ele><time>2014-8-28T15:46:16Z</time></trkpt>
<trkpt lat="44.2197677" lon="8.3391821"><ele></ele><time>2014-8-28T15:46:19Z</time></trkpt>
<trkpt lat="44.2198507" lon="8.3391254"><ele></ele><time>2014-8-28T15:46:22Z</time></trkpt>
<trkpt lat="44.2199416" lon="8.3390074"><ele></ele><time>2014-8-28T15:46:25Z</time></trkpt>
<trkpt lat="44.2200206" lon="8.3389308"><ele></ele><time>2014-8-28T15:46:28Z</time></trkpt>
<trkpt lat="44.2201192" lon="8.3388352"><ele></ele><time>2014-8-28T15:46:31Z</time></trkpt>
<trkpt lat="44.2203859" lon="8.3384867"><ele></ele><time>2014-8-28T15:46:34Z</time></trkpt>
<trkpt lat="44.2204517" lon="8.3384163"><ele></ele><time>2014-8-28T15:46:37Z</time></trkpt>
<trkpt lat="44.2204463" lon="8.3384292"><ele></ele><time>2014-8-28T15:46:40Z</time></trkpt>
<trkpt lat="44.2204523" lon="8.3383967"><ele></ele><time>2014-8-28T15:46:43Z</time></trkpt>
<trkpt lat="44.2205082" lon="8.3384030"><ele></ele><time>2014-8-28T15:46:46Z</time></trkpt>
<trkpt lat="44.2204460" lon="8.3385016"><ele></ele><time>2014-8-28T15:46:49Z</time></trkpt>
<trkpt lat="44.2202864" lon="8.3388938"><ele></ele><time>2014-8-28T15:46:52Z</time></trkpt>
<trkpt lat="44.2204106" lon="8.3392330"><ele></ele><time>2014-8-28T15:46:55Z</time></trkpt>
<trkpt lat="44.2205741" lon="8.3396825"><ele></ele><time>2014-8-28T15:46:58Z</time></trkpt>
<trkpt lat="44.2204686" lon="8.3402542"><ele></ele><time>2014-8-28T15:47:1Z</time></trkpt>
<trkpt lat="44.2206154" lon="8.3404495"><ele></ele><time>2014-8-28T15:47:4Z</time></trkpt>
<trkpt lat="44.2205939" lon="8.3404568"><ele></ele><time>2014-8-28T15:47:7Z</time></trkpt>
<trkpt lat="44.2207626" lon="8.3405416"><ele></ele><time>2014-8-28T15:47:10Z</time></trkpt>
<trkpt lat="44.2210231" lon="8.3406239"><ele></ele><time>2014-8-28T15:47:13Z</time></trkpt>
<trkpt lat="44.2213678" lon="8.3408012"><ele></ele><time>2014-8-28T15:47:16Z</time></trkpt>
<trkpt lat="44.2213996" lon="8.3408267"><ele></ele><time>2014-8-28T15:47:19Z</time></trkpt>
<trkpt lat="44.2217161" lon="8.3408814"><ele></ele><time>2014-8-28T15:47:22Z</time></trkpt>
<trkpt lat="44.2217711" lon="8.3408825"><ele></ele><time>2014-8-28T15:47:25Z</time></trkpt>
<trkpt lat="44.2221745" lon="8.3409100"><ele></ele><time>2014-8-28T15:47:28Z</time></trkpt>
<trkpt lat="44.2224554" lon="8.3410010"><ele></ele><time>2014-8-28T15:47:31Z</time></trkpt>
<trkpt lat="44.2225330" lon="8.3413071"><ele></ele><time>2014-8-28T15:47:34Z</time></trkpt>
<trkpt lat="44.2224565" lon="8.3416425"><ele></ele><time>2014-8-28T15:47:37Z</time></trkpt>
<trkpt lat="44.2224060" lon="8.3421062"><ele></ele><time>2014-8-28T15:47:40Z</time></trkpt>
<trkpt lat="44.2226739" lon="8.3423658"><ele></ele><time>2014-8-28T15:47:43Z</time></trkpt>
<trkpt lat="44.2229545" lon="8.3427195"><ele></ele><time>2014-8-28T15:47:46Z</time></trkpt>
<trkpt lat="44.2229721" lon="8.3428816"><ele></ele><time>2014-8-28T15:47:49Z</time></trkpt>
<trkpt lat="44.2229532" lon="8.3428840"><ele></ele><time>2014-8-28T15:47:52Z</time></trkpt>
<trkpt lat="44.2230281" lon="8.3431344"><ele></ele><time>2014-8-28T15:47:55Z</time></trkpt>
<trkpt lat="44.2231339" lon="8.3435528"><ele></ele><time>2014-8-28T15:47:58Z</time></trkpt>
<trkpt lat="44.2227599" lon="8.3441122"><ele></ele><time>2014-8-28T15:48:1Z</time></trkpt>
<trkpt lat="44.2227015" lon="8.3441570"><ele></ele><time>2014-8-28T15:48:4Z</time></trkpt>
<trkpt lat="44.2223450" lon="8.3443678"><ele></ele><time>2014-8-28T15:48:7Z</time></trkpt>
<trkpt lat="44.2221557" lon="8.3446376"><ele></ele><time>2014-8-28T15:48:10Z</time></trkpt>
<trkpt lat="44.2221428" lon="8.3446380"><ele></ele><time>2014-8-28T15:48:13Z</time></trkpt>
<trkpt lat="44.2221528" lon="8.3446247"><ele></ele><time>2014-8-28T15:48:16Z</time></trkpt>
<trkpt lat="44.2221485" lon="8.3446262"><ele></ele><time>2014-8-28T15:48:19Z</time></trkpt>
<trkpt lat="44.2221447" lon="8.3446268"><ele></ele><time>2014-8-28T15:48:22Z</time></trkpt>
<trkpt lat="44.2221460" lon="8.3446355"><ele></ele><time>2014-8-28T15:48:25Z</time></trkpt>
<trkpt lat="44.2221336" lon="8.3446354"><ele></ele><time>2014-8-28T15:48:28Z</time></trkpt>
<trkpt lat="44.2221342" lon="8.3446359"><ele></ele><time>2014-8-28T15:48:31Z</time></trkpt>
<trkpt lat="44.2221611" lon="8.3446288"><ele></ele><time>2014-8-28T15:48:34Z</time></trkpt>
<trkpt lat="44.2221581" lon="8.3446339"><ele></ele><time>2014-8-28T15:48:37Z</time></trkpt>
<trkpt lat="44.2221730" lon="8.3447562"><ele></ele><time>2014-8-28T15:48:40Z</time></trkpt>
<trkpt lat="44.2221648" lon="8.3447931"><ele></ele><time>2014-8-28T15:48:43Z</time></trkpt>
<trkpt lat="44.2222528" lon="8.3448985"><ele></ele><time>2014-8-28T15:48:46Z</time></trkpt>
<trkpt lat="44.2225217" lon="8.3448687"><ele></ele><time>2014-8-28T15:48:49Z</time></trkpt>
<trkpt lat="44.2229003" lon="8.3445919"><ele></ele><time>2014-8-28T15:48:52Z</time></trkpt>
<trkpt lat="44.2232773" lon="8.3445201"><ele></ele><time>2014-8-28T15:48:55Z</time></trkpt>
<trkpt lat="44.2235753" lon="8.3443884"><ele></ele><time>2014-8-28T15:48:58Z</time></trkpt>
<trkpt lat="44.2237146" lon="8.3442358"><ele></ele><time>2014-8-28T15:49:1Z</time></trkpt>
<trkpt lat="44.2238991" lon="8.3439724"><ele></ele><time>2014-8-28T15:49:4Z</time></trkpt>
<trkpt lat="44.2240388" lon="8.3438451"><ele></ele><time>2014-8-28T15:49:7Z</time></trkpt>
<trkpt lat="44.2242352" lon="8.3437367"><ele></ele><time>2014-8-28T15:49:10Z</time></trkpt>
<trkpt lat="44.2242467" lon="8.3437254"><ele></ele><time>2014-8-28T15:49:13Z</time></trkpt>
<trkpt lat="44.2244032" lon="8.3434192"><ele></ele><time>2014-8-28T15:49:16Z</time></trkpt>
<trkpt lat="44.2245339" lon="8.3433236"><ele></ele><time>2014-8-28T15:49:19Z</time></trkpt>
<trkpt lat="44.2245769" lon="8.3432875"><ele></ele><time>2014-8-28T15:49:22Z</time></trkpt>
<trkpt lat="44.2247698" lon="8.3431731"><ele></ele><time>2014-8-28T15:49:25Z</time></trkpt>
<trkpt lat="44.2251561" lon="8.3428857"><ele></ele><time>2014-8-28T15:49:28Z</time></trkpt>
<trkpt lat="44.2253618" lon="8.3428033"><ele></ele><time>2014-8-28T15:49:31Z</time></trkpt>
<trkpt lat="44.2255045" lon="8.3426594"><ele></ele><time>2014-8-28T15:49:34Z</time></trkpt>
<trkpt lat="44.2257395" lon="8.3423557"><ele></ele><time>2014-8-28T15:49:37Z</time></trkpt>
<trkpt lat="44.2258789" lon="8.3421082"><ele></ele><time>2014-8-28T15:49:40Z</time></trkpt>
<trkpt lat="44.2262151" lon="8.3415071"><ele></ele><time>2014-8-28T15:49:43Z</time></trkpt>
<trkpt lat="44.2263482" lon="8.3412924"><ele></ele><time>2014-8-28T15:49:46Z</time></trkpt>
<trkpt lat="44.2265547" lon="8.3408562"><ele></ele><time>2014-8-28T15:49:49Z</time></trkpt>
<trkpt lat="44.2266645" lon="8.3405372"><ele></ele><time>2014-8-28T15:49:52Z</time></trkpt>
<trkpt lat="44.2268758" lon="8.3399269"><ele></ele><time>2014-8-28T15:49:55Z</time></trkpt>
<trkpt lat="44.2269973" lon="8.3396700"><ele></ele><time>2014-8-28T15:49:58Z</time></trkpt>
<trkpt lat="44.2270989" lon="8.3393052"><ele></ele><time>2014-8-28T15:50:1Z</time></trkpt>
<trkpt lat="44.2270732" lon="8.3393005"><ele></ele><time>2014-8-28T15:50:4Z</time></trkpt>
<trkpt lat="44.2270952" lon="8.3390939"><ele></ele><time>2014-8-28T15:50:7Z</time></trkpt>
<trkpt lat="44.2271481" lon="8.3386358"><ele></ele><time>2014-8-28T15:50:10Z</time></trkpt>
<trkpt lat="44.2272640" lon="8.3381791"><ele></ele><time>2014-8-28T15:50:13Z</time></trkpt>
<trkpt lat="44.2272719" lon="8.3380186"><ele></ele><time>2014-8-28T15:50:16Z</time></trkpt>
<trkpt lat="44.2273419" lon="8.3376397"><ele></ele><time>2014-8-28T15:50:19Z</time></trkpt>
<trkpt lat="44.2273500" lon="8.3376114"><ele></ele><time>2014-8-28T15:50:22Z</time></trkpt>
<trkpt lat="44.2273252" lon="8.3372615"><ele></ele><time>2014-8-28T15:50:25Z</time></trkpt>
<trkpt lat="44.2273895" lon="8.3369167"><ele></ele><time>2014-8-28T15:50:28Z</time></trkpt>
<trkpt lat="44.2274894" lon="8.3365763"><ele></ele><time>2014-8-28T15:50:31Z</time></trkpt>
<trkpt lat="44.2275924" lon="8.3362918"><ele></ele><time>2014-8-28T15:50:34Z</time></trkpt>
<trkpt lat="44.2277603" lon="8.3362816"><ele></ele><time>2014-8-28T15:50:37Z</time></trkpt>
<trkpt lat="44.2278433" lon="8.3364539"><ele></ele><time>2014-8-28T15:50:40Z</time></trkpt>
<trkpt lat="44.2280466" lon="8.3366970"><ele></ele><time>2014-8-28T15:50:43Z</time></trkpt>
<trkpt lat="44.2283001" lon="8.3367899"><ele></ele><time>2014-8-28T15:50:46Z</time></trkpt>
<trkpt lat="44.2285289" lon="8.3369249"><ele></ele><time>2014-8-28T15:50:49Z</time></trkpt>
<trkpt lat="44.2288315" lon="8.3367881"><ele></ele><time>2014-8-28T15:50:52Z</time></trkpt>
<trkpt lat="44.2289137" lon="8.3367775"><ele></ele><time>2014-8-28T15:50:55Z</time></trkpt>
<trkpt lat="44.2289398" lon="8.3367866"><ele></ele><time>2014-8-28T15:50:58Z</time></trkpt>
<trkpt lat="44.2289178" lon="8.3367774"><ele></ele><time>2014-8-28T15:51:1Z</time></trkpt>
<trkpt lat="44.2289067" lon="8.3367137"><ele></ele><time>2014-8-28T15:51:4Z</time></trkpt>
<trkpt lat="44.2289080" lon="8.3367145"><ele></ele><time>2014-8-28T15:51:7Z</time></trkpt>
<trkpt lat="44.2289080" lon="8.3367168"><ele></ele><time>2014-8-28T15:51:10Z</time></trkpt>
<trkpt lat="44.2289025" lon="8.3366733"><ele></ele><time>2014-8-28T15:51:13Z</time></trkpt>
<trkpt lat="44.2289016" lon="8.3366618"><ele></ele><time>2014-8-28T15:51:16Z</time></trkpt>
<trkpt lat="44.2288994" lon="8.3367494"><ele></ele><time>2014-8-28T15:51:19Z</time></trkpt>
<trkpt lat="44.2288967" lon="8.3367057"><ele></ele><time>2014-8-28T15:51:22Z</time></trkpt>
<trkpt lat="44.2289091" lon="8.3366946"><ele></ele><time>2014-8-28T15:51:25Z</time></trkpt>
<trkpt lat="44.2289108" lon="8.3366945"><ele></ele><time>2014-8-28T15:51:28Z</time></trkpt>
<trkpt lat="44.2289112" lon="8.3367063"><ele></ele><time>2014-8-28T15:51:31Z</time></trkpt>
<trkpt lat="44.2289066" lon="8.3367052"><ele></ele><time>2014-8-28T15:51:34Z</time></trkpt>
<trkpt lat="44.2288950" lon="8.3367590"><ele></ele><time>2014-8-28T15:51:37Z</time></trkpt>
<trkpt lat="44.2288911" lon="8.3367827"><ele></ele><time>2014-8-28T15:51:40Z</time></trkpt>
<trkpt lat="44.2289059" lon="8.3367240"><ele></ele><time>2014-8-28T15:51:43Z</time></trkpt>
<trkpt lat="44.2289068" lon="8.3367177"><ele></ele><time>2014-8-28T15:51:46Z</time></trkpt>
<trkpt lat="44.2289166" lon="8.3367267"><ele></ele><time>2014-8-28T15:51:49Z</time></trkpt>
<trkpt lat="44.2289879" lon="8.3368013"><ele></ele><time>2014-8-28T15:51:52Z</time></trkpt>
<trkpt lat="44.2291504" lon="8.3369417"><ele></ele><time>2014-8-28T15:51:55Z</time></trkpt>
<trkpt lat="44.2292169" lon="8.3369509"><ele></ele><time>2014-8-28T15:51:58Z</time></trkpt>
<trkpt lat="44.2293806" lon="8.3370097"><ele></ele><time>2014-8-28T15:52:1Z</time></trkpt>
<trkpt lat="44.2297246" lon="8.3368901"><ele></ele><time>2014-8-28T15:52:4Z</time></trkpt>
<trkpt lat="44.2299044" lon="8.3369956"><ele></ele><time>2014-8-28T15:52:7Z</time></trkpt>
<trkpt lat="44.2300702" lon="8.3371165"><ele></ele><time>2014-8-28T15:52:10Z</time></trkpt>
<trkpt lat="44.2303939" lon="8.3372845"><ele></ele><time>2014-8-28T15:52:13Z</time></trkpt>
<trkpt lat="44.2307734" lon="8.3372981"><ele></ele><time>2014-8-28T15:52:16Z</time></trkpt>
<trkpt lat="44.2312062" lon="8.3371818"><ele></ele><time>2014-8-28T15:52:19Z</time></trkpt>
<trkpt lat="44.2315993" lon="8.3370809"><ele></ele><time>2014-8-28T15:52:22Z</time></trkpt>
<trkpt lat="44.2317064" lon="8.3367416"><ele></ele><time>2014-8-28T15:52:25Z</time></trkpt>
<trkpt lat="44.2319601" lon="8.3365084"><ele></ele><time>2014-8-28T15:52:28Z</time></trkpt>
<trkpt lat="44.2323153" lon="8.3362204"><ele></ele><time>2014-8-28T15:52:31Z</time></trkpt>
<trkpt lat="44.2327140" lon="8.3359424"><ele></ele><time>2014-8-28T15:52:34Z</time></trkpt>
<trkpt lat="44.2329983" lon="8.3355538"><ele></ele><time>2014-8-28T15:52:37Z</time></trkpt>
<trkpt lat="44.2334805" lon="8.3353879"><ele></ele><time>2014-8-28T15:52:40Z</time></trkpt>
<trkpt lat="44.2336578" lon="8.3352549"><ele></ele><time>2014-8-28T15:52:43Z</time></trkpt>
<trkpt lat="44.2336630" lon="8.3352472"><ele></ele><time>2014-8-28T15:52:46Z</time></trkpt>
<trkpt lat="44.2337790" lon="8.3349446"><ele></ele><time>2014-8-28T15:52:49Z</time></trkpt>
<trkpt lat="44.2338118" lon="8.3349426"><ele></ele><time>2014-8-28T15:52:52Z</time></trkpt>
<trkpt lat="44.2338258" lon="8.3349396"><ele></ele><time>2014-8-28T15:52:55Z</time></trkpt>
<trkpt lat="44.2339872" lon="8.3345966"><ele></ele><time>2014-8-28T15:52:58Z</time></trkpt>
<trkpt lat="44.2340454" lon="8.3345019"><ele></ele><time>2014-8-28T15:53:1Z</time></trkpt>
<trkpt lat="44.2340886" lon="8.3342995"><ele></ele><time>2014-8-28T15:53:4Z</time></trkpt>
<trkpt lat="44.2340883" lon="8.3342267"><ele></ele><time>2014-8-28T15:53:7Z</time></trkpt>
<trkpt lat="44.2341007" lon="8.3341593"><ele></ele><time>2014-8-28T15:53:10Z</time></trkpt>
<trkpt lat="44.2341993" lon="8.3338509"><ele></ele><time>2014-8-28T15:53:13Z</time></trkpt>
<trkpt lat="44.2342209" lon="8.3337801"><ele></ele><time>2014-8-28T15:53:16Z</time></trkpt>
<trkpt lat="44.2342795" lon="8.3334621"><ele></ele><time>2014-8-28T15:53:19Z</time></trkpt>
<trkpt lat="44.2343085" lon="8.3334233"><ele></ele><time>2014-8-28T15:53:22Z</time></trkpt>
<trkpt lat="44.2344271" lon="8.3332255"><ele></ele><time>2014-8-28T15:53:25Z</time></trkpt>
<trkpt lat="44.2344706" lon="8.3331641"><ele></ele><time>2014-8-28T15:53:28Z</time></trkpt>
<trkpt lat="44.2345721" lon="8.3330701"><ele></ele><time>2014-8-28T15:53:31Z</time></trkpt>
<trkpt lat="44.2345926" lon="8.3330519"><ele></ele><time>2014-8-28T15:53:34Z</time></trkpt>
<trkpt lat="44.2346778" lon="8.3329173"><ele></ele><time>2014-8-28T15:53:37Z</time></trkpt>
<trkpt lat="44.2347131" lon="8.3328436"><ele></ele><time>2014-8-28T15:53:40Z</time></trkpt>
<trkpt lat="44.2347617" lon="8.3327445"><ele></ele><time>2014-8-28T15:53:43Z</time></trkpt>
<trkpt lat="44.2348756" lon="8.3325897"><ele></ele><time>2014-8-28T15:53:46Z</time></trkpt>
<trkpt lat="44.2349532" lon="8.3324432"><ele></ele><time>2014-8-28T15:53:49Z</time></trkpt>
<trkpt lat="44.2349677" lon="8.3323992"><ele></ele><time>2014-8-28T15:53:52Z</time></trkpt>
<trkpt lat="44.2350465" lon="8.3321888"><ele></ele><time>2014-8-28T15:53:55Z</time></trkpt>
<trkpt lat="44.2351072" lon="8.3320402"><ele></ele><time>2014-8-28T15:53:58Z</time></trkpt>
<trkpt lat="44.2352533" lon="8.3318564"><ele></ele><time>2014-8-28T15:54:1Z</time></trkpt>
<trkpt lat="44.2354165" lon="8.3316795"><ele></ele><time>2014-8-28T15:54:4Z</time></trkpt>
<trkpt lat="44.2355170" lon="8.3314526"><ele></ele><time>2014-8-28T15:54:7Z</time></trkpt>
<trkpt lat="44.2355512" lon="8.3311480"><ele></ele><time>2014-8-28T15:54:10Z</time></trkpt>
<trkpt lat="44.2356342" lon="8.3309254"><ele></ele><time>2014-8-28T15:54:13Z</time></trkpt>
<trkpt lat="44.2356449" lon="8.3309150"><ele></ele><time>2014-8-28T15:54:16Z</time></trkpt>
<trkpt lat="44.2357268" lon="8.3307403"><ele></ele><time>2014-8-28T15:54:19Z</time></trkpt>
<trkpt lat="44.2358455" lon="8.3304679"><ele></ele><time>2014-8-28T15:54:22Z</time></trkpt>
<trkpt lat="44.2359111" lon="8.3302665"><ele></ele><time>2014-8-28T15:54:25Z</time></trkpt>
<trkpt lat="44.2359431" lon="8.3301847"><ele></ele><time>2014-8-28T15:54:28Z</time></trkpt>
<trkpt lat="44.2359967" lon="8.3300567"><ele></ele><time>2014-8-28T15:54:31Z</time></trkpt>
<trkpt lat="44.2360760" lon="8.3298438"><ele></ele><time>2014-8-28T15:54:34Z</time></trkpt>
<trkpt lat="44.2362033" lon="8.3296840"><ele></ele><time>2014-8-28T15:54:37Z</time></trkpt>
<trkpt lat="44.2363373" lon="8.3294915"><ele></ele><time>2014-8-28T15:54:40Z</time></trkpt>
<trkpt lat="44.2363503" lon="8.3294786"><ele></ele><time>2014-8-28T15:54:43Z</time></trkpt>
<trkpt lat="44.2365722" lon="8.3292709"><ele></ele><time>2014-8-28T15:54:46Z</time></trkpt>
<trkpt lat="44.2367188" lon="8.3290383"><ele></ele><time>2014-8-28T15:54:49Z</time></trkpt>
<trkpt lat="44.2368814" lon="8.3287918"><ele></ele><time>2014-8-28T15:54:52Z</time></trkpt>
<trkpt lat="44.2370325" lon="8.3285173"><ele></ele><time>2014-8-28T15:54:55Z</time></trkpt>
<trkpt lat="44.2372015" lon="8.3282452"><ele></ele><time>2014-8-28T15:54:58Z</time></trkpt>
<trkpt lat="44.2373000" lon="8.3281281"><ele></ele><time>2014-8-28T15:55:1Z</time></trkpt>
<trkpt lat="44.2374625" lon="8.3277666"><ele></ele><time>2014-8-28T15:55:4Z</time></trkpt>
<trkpt lat="44.2376657" lon="8.3273678"><ele></ele><time>2014-8-28T15:55:7Z</time></trkpt>
<trkpt lat="44.2377864" lon="8.3271490"><ele></ele><time>2014-8-28T15:55:10Z</time></trkpt>
<trkpt lat="44.2379719" lon="8.3268780"><ele></ele><time>2014-8-28T15:55:13Z</time></trkpt>
<trkpt lat="44.2381648" lon="8.3266109"><ele></ele><time>2014-8-28T15:55:16Z</time></trkpt>
<trkpt lat="44.2383475" lon="8.3263673"><ele></ele><time>2014-8-28T15:55:19Z</time></trkpt>
<trkpt lat="44.2385164" lon="8.3260395"><ele></ele><time>2014-8-28T15:55:22Z</time></trkpt>
<trkpt lat="44.2386763" lon="8.3257016"><ele></ele><time>2014-8-28T15:55:25Z</time></trkpt>
<trkpt lat="44.2387477" lon="8.3256089"><ele></ele><time>2014-8-28T15:55:28Z</time></trkpt>
<trkpt lat="44.2387607" lon="8.3256289"><ele></ele><time>2014-8-28T15:55:31Z</time></trkpt>
<trkpt lat="44.2387722" lon="8.3256251"><ele></ele><time>2014-8-28T15:55:34Z</time></trkpt>
<trkpt lat="44.2387564" lon="8.3255940"><ele></ele><time>2014-8-28T15:55:37Z</time></trkpt>
<trkpt lat="44.2387556" lon="8.3255993"><ele></ele><time>2014-8-28T15:55:40Z</time></trkpt>
<trkpt lat="44.2387701" lon="8.3255992"><ele></ele><time>2014-8-28T15:55:43Z</time></trkpt>
<trkpt lat="44.2390486" lon="8.3255858"><ele></ele><time>2014-8-28T15:55:46Z</time></trkpt>
<trkpt lat="44.2392030" lon="8.3256260"><ele></ele><time>2014-8-28T15:55:49Z</time></trkpt>
<trkpt lat="44.2392927" lon="8.3256327"><ele></ele><time>2014-8-28T15:55:52Z</time></trkpt>
<trkpt lat="44.2397361" lon="8.3253975"><ele></ele><time>2014-8-28T15:55:55Z</time></trkpt>
<trkpt lat="44.2399267" lon="8.3253708"><ele></ele><time>2014-8-28T15:55:58Z</time></trkpt>
<trkpt lat="44.2401576" lon="8.3253678"><ele></ele><time>2014-8-28T15:56:1Z</time></trkpt>
<trkpt lat="44.2406873" lon="8.3254897"><ele></ele><time>2014-8-28T15:56:4Z</time></trkpt>
<trkpt lat="44.2410289" lon="8.3258676"><ele></ele><time>2014-8-28T15:56:7Z</time></trkpt>
<trkpt lat="44.2413871" lon="8.3261096"><ele></ele><time>2014-8-28T15:56:10Z</time></trkpt>
<trkpt lat="44.2416797" lon="8.3262928"><ele></ele><time>2014-8-28T15:56:13Z</time></trkpt>
<trkpt lat="44.2417134" lon="8.3263527"><ele></ele><time>2014-8-28T15:56:16Z</time></trkpt>
<trkpt lat="44.2417165" lon="8.3263822"><ele></ele><time>2014-8-28T15:56:19Z</time></trkpt>
<trkpt lat="44.2417004" lon="8.3263486"><ele></ele><time>2014-8-28T15:56:22Z</time></trkpt>
<trkpt lat="44.2417056" lon="8.3263353"><ele></ele><time>2014-8-28T15:56:25Z</time></trkpt>
<trkpt lat="44.2417171" lon="8.3263152"><ele></ele><time>2014-8-28T15:56:28Z</time></trkpt>
<trkpt lat="44.2417189" lon="8.3263031"><ele></ele><time>2014-8-28T15:56:31Z</time></trkpt>
<trkpt lat="44.2417072" lon="8.3263461"><ele></ele><time>2014-8-28T15:56:34Z</time></trkpt>
<trkpt lat="44.2416941" lon="8.3263384"><ele></ele><time>2014-8-28T15:56:37Z</time></trkpt>
<trkpt lat="44.2417124" lon="8.3263332"><ele></ele><time>2014-8-28T15:56:40Z</time></trkpt>
<trkpt lat="44.2418232" lon="8.3264380"><ele></ele><time>2014-8-28T15:56:43Z</time></trkpt>
<trkpt lat="44.2421450" lon="8.3265482"><ele></ele><time>2014-8-28T15:56:46Z</time></trkpt>
<trkpt lat="44.2422313" lon="8.3261173"><ele></ele><time>2014-8-28T15:56:49Z</time></trkpt>
<trkpt lat="44.2423234" lon="8.3258432"><ele></ele><time>2014-8-28T15:56:52Z</time></trkpt>
<trkpt lat="44.2423749" lon="8.3257442"><ele></ele><time>2014-8-28T15:56:55Z</time></trkpt>
<trkpt lat="44.2424428" lon="8.3256529"><ele></ele><time>2014-8-28T15:56:58Z</time></trkpt>
<trkpt lat="44.2425851" lon="8.3255138"><ele></ele><time>2014-8-28T15:57:1Z</time></trkpt>
<trkpt lat="44.2428897" lon="8.3252519"><ele></ele><time>2014-8-28T15:57:4Z</time></trkpt>
<trkpt lat="44.2431842" lon="8.3250534"><ele></ele><time>2014-8-28T15:57:7Z</time></trkpt>
<trkpt lat="44.2435332" lon="8.3248186"><ele></ele><time>2014-8-28T15:57:10Z</time></trkpt>
<trkpt lat="44.2437959" lon="8.3245949"><ele></ele><time>2014-8-28T15:57:13Z</time></trkpt>
<trkpt lat="44.2438927" lon="8.3244996"><ele></ele><time>2014-8-28T15:57:16Z</time></trkpt>
<trkpt lat="44.2438958" lon="8.3244928"><ele></ele><time>2014-8-28T15:57:19Z</time></trkpt>
<trkpt lat="44.2441807" lon="8.3245237"><ele></ele><time>2014-8-28T15:57:22Z</time></trkpt>
<trkpt lat="44.2445623" lon="8.3245759"><ele></ele><time>2014-8-28T15:57:25Z</time></trkpt>
<trkpt lat="44.2449292" lon="8.3246078"><ele></ele><time>2014-8-28T15:57:28Z</time></trkpt>
<trkpt lat="44.2450948" lon="8.3245238"><ele></ele><time>2014-8-28T15:57:31Z</time></trkpt>
<trkpt lat="44.2452305" lon="8.3244995"><ele></ele><time>2014-8-28T15:57:34Z</time></trkpt>
<trkpt lat="44.2452525" lon="8.3245016"><ele></ele><time>2014-8-28T15:57:37Z</time></trkpt>
<trkpt lat="44.2454010" lon="8.3244692"><ele></ele><time>2014-8-28T15:57:40Z</time></trkpt>
<trkpt lat="44.2456169" lon="8.3243409"><ele></ele><time>2014-8-28T15:57:43Z</time></trkpt>
<trkpt lat="44.2459988" lon="8.3241311"><ele></ele><time>2014-8-28T15:57:46Z</time></trkpt>
<trkpt lat="44.2464084" lon="8.3239137"><ele></ele><time>2014-8-28T15:57:49Z</time></trkpt>
<trkpt lat="44.2467236" lon="8.3238088"><ele></ele><time>2014-8-28T15:57:52Z</time></trkpt>
<trkpt lat="44.2472243" lon="8.3238664"><ele></ele><time>2014-8-28T15:57:55Z</time></trkpt>
<trkpt lat="44.2472873" lon="8.3238686"><ele></ele><time>2014-8-28T15:57:58Z</time></trkpt>
<trkpt lat="44.2475115" lon="8.3239116"><ele></ele><time>2014-8-28T15:58:1Z</time></trkpt>
<trkpt lat="44.2477959" lon="8.3240804"><ele></ele><time>2014-8-28T15:58:4Z</time></trkpt>
<trkpt lat="44.2479860" lon="8.3241171"><ele></ele><time>2014-8-28T15:58:7Z</time></trkpt>
<trkpt lat="44.2483232" lon="8.3241318"><ele></ele><time>2014-8-28T15:58:10Z</time></trkpt>
<trkpt lat="44.2486924" lon="8.3241089"><ele></ele><time>2014-8-28T15:58:13Z</time></trkpt>
<trkpt lat="44.2490271" lon="8.3240286"><ele></ele><time>2014-8-28T15:58:16Z</time></trkpt>
<trkpt lat="44.2493008" lon="8.3240255"><ele></ele><time>2014-8-28T15:58:19Z</time></trkpt>
<trkpt lat="44.2496276" lon="8.3239719"><ele></ele><time>2014-8-28T15:58:22Z</time></trkpt>
<trkpt lat="44.2497995" lon="8.3239512"><ele></ele><time>2014-8-28T15:58:25Z</time></trkpt>
<trkpt lat="44.2498804" lon="8.3239892"><ele></ele><time>2014-8-28T15:58:28Z</time></trkpt>
<trkpt lat="44.2499859" lon="8.3240746"><ele></ele><time>2014-8-28T15:58:31Z</time></trkpt>
<trkpt lat="44.2501607" lon="8.3239053"><ele></ele><time>2014-8-28T15:58:34Z</time></trkpt>
<trkpt lat="44.2501983" lon="8.3237700"><ele></ele><time>2014-8-28T15:58:37Z</time></trkpt>
<trkpt lat="44.2502703" lon="8.3237578"><ele></ele><time>2014-8-28T15:58:40Z</time></trkpt>
<trkpt lat="44.2504118" lon="8.3238162"><ele></ele><time>2014-8-28T15:58:43Z</time></trkpt>
<trkpt lat="44.2504241" lon="8.3238209"><ele></ele><time>2014-8-28T15:58:46Z</time></trkpt>
<trkpt lat="44.2505998" lon="8.3236757"><ele></ele><time>2014-8-28T15:58:49Z</time></trkpt>
<trkpt lat="44.2506168" lon="8.3236784"><ele></ele><time>2014-8-28T15:58:52Z</time></trkpt>
<trkpt lat="44.2507424" lon="8.3238279"><ele></ele><time>2014-8-28T15:58:55Z</time></trkpt>
<trkpt lat="44.2508252" lon="8.3235888"><ele></ele><time>2014-8-28T15:58:58Z</time></trkpt>
<trkpt lat="44.2509630" lon="8.3234170"><ele></ele><time>2014-8-28T15:59:1Z</time></trkpt>
<trkpt lat="44.2509843" lon="8.3234029"><ele></ele><time>2014-8-28T15:59:4Z</time></trkpt>
<trkpt lat="44.2510138" lon="8.3233781"><ele></ele><time>2014-8-28T15:59:7Z</time></trkpt>
<trkpt lat="44.2510679" lon="8.3232234"><ele></ele><time>2014-8-28T15:59:10Z</time></trkpt>
<trkpt lat="44.2510687" lon="8.3231866"><ele></ele><time>2014-8-28T15:59:13Z</time></trkpt>
<trkpt lat="44.2511416" lon="8.3229641"><ele></ele><time>2014-8-28T15:59:16Z</time></trkpt>
<trkpt lat="44.2512482" lon="8.3228585"><ele></ele><time>2014-8-28T15:59:19Z</time></trkpt>
<trkpt lat="44.2512827" lon="8.3228257"><ele></ele><time>2014-8-28T15:59:22Z</time></trkpt>
<trkpt lat="44.2514052" lon="8.3227134"><ele></ele><time>2014-8-28T15:59:25Z</time></trkpt>
<trkpt lat="44.2515079" lon="8.3226303"><ele></ele><time>2014-8-28T15:59:28Z</time></trkpt>
<trkpt lat="44.2516751" lon="8.3224039"><ele></ele><time>2014-8-28T15:59:31Z</time></trkpt>
<trkpt lat="44.2517671" lon="8.3222475"><ele></ele><time>2014-8-28T15:59:34Z</time></trkpt>
<trkpt lat="44.2518011" lon="8.3221879"><ele></ele><time>2014-8-28T15:59:37Z</time></trkpt>
<trkpt lat="44.2519549" lon="8.3220234"><ele></ele><time>2014-8-28T15:59:40Z</time></trkpt>
<trkpt lat="44.2520099" lon="8.3219823"><ele></ele><time>2014-8-28T15:59:43Z</time></trkpt>
<trkpt lat="44.2520772" lon="8.3219440"><ele></ele><time>2014-8-28T15:59:46Z</time></trkpt>
<trkpt lat="44.2522268" lon="8.3218255"><ele></ele><time>2014-8-28T15:59:49Z</time></trkpt>
<trkpt lat="44.2523439" lon="8.3217101"><ele></ele><time>2014-8-28T15:59:52Z</time></trkpt>
<trkpt lat="44.2524371" lon="8.3216187"><ele></ele><time>2014-8-28T15:59:55Z</time></trkpt>
<trkpt lat="44.2524045" lon="8.3216215"><ele></ele><time>2014-8-28T15:59:58Z</time></trkpt>
<trkpt lat="44.2523969" lon="8.3216104"><ele></ele><time>2014-8-28T16:0:1Z</time></trkpt>
<trkpt lat="44.2524103" lon="8.3215904"><ele></ele><time>2014-8-28T16:0:4Z</time></trkpt>
<trkpt lat="44.2524461" lon="8.3215639"><ele></ele><time>2014-8-28T16:0:7Z</time></trkpt>
<trkpt lat="44.2525023" lon="8.3214257"><ele></ele><time>2014-8-28T16:0:10Z</time></trkpt>
<trkpt lat="44.2526412" lon="8.3212348"><ele></ele><time>2014-8-28T16:0:13Z</time></trkpt>
<trkpt lat="44.2528093" lon="8.3210583"><ele></ele><time>2014-8-28T16:0:16Z</time></trkpt>
<trkpt lat="44.2529729" lon="8.3208455"><ele></ele><time>2014-8-28T16:0:19Z</time></trkpt>
<trkpt lat="44.2531718" lon="8.3206853"><ele></ele><time>2014-8-28T16:0:22Z</time></trkpt>
<trkpt lat="44.2534417" lon="8.3206476"><ele></ele><time>2014-8-28T16:0:25Z</time></trkpt>
<trkpt lat="44.2537872" lon="8.3206061"><ele></ele><time>2014-8-28T16:0:28Z</time></trkpt>
<trkpt lat="44.2539199" lon="8.3205987"><ele></ele><time>2014-8-28T16:0:31Z</time></trkpt>
<trkpt lat="44.2540819" lon="8.3205220"><ele></ele><time>2014-8-28T16:0:34Z</time></trkpt>
<trkpt lat="44.2542387" lon="8.3204498"><ele></ele><time>2014-8-28T16:0:37Z</time></trkpt>
<trkpt lat="44.2544237" lon="8.3202290"><ele></ele><time>2014-8-28T16:0:40Z</time></trkpt>
<trkpt lat="44.2546246" lon="8.3199198"><ele></ele><time>2014-8-28T16:0:43Z</time></trkpt>
<trkpt lat="44.2548646" lon="8.3196894"><ele></ele><time>2014-8-28T16:0:46Z</time></trkpt>
<trkpt lat="44.2550675" lon="8.3195701"><ele></ele><time>2014-8-28T16:0:49Z</time></trkpt>
<trkpt lat="44.2550827" lon="8.3195562"><ele></ele><time>2014-8-28T16:0:52Z</time></trkpt>
<trkpt lat="44.2553022" lon="8.3194549"><ele></ele><time>2014-8-28T16:0:55Z</time></trkpt>
<trkpt lat="44.2555308" lon="8.3192384"><ele></ele><time>2014-8-28T16:0:58Z</time></trkpt>
<trkpt lat="44.2557541" lon="8.3191495"><ele></ele><time>2014-8-28T16:1:1Z</time></trkpt>
<trkpt lat="44.2559442" lon="8.3189450"><ele></ele><time>2014-8-28T16:1:4Z</time></trkpt>
<trkpt lat="44.2559991" lon="8.3188608"><ele></ele><time>2014-8-28T16:1:7Z</time></trkpt>
<trkpt lat="44.2560472" lon="8.3188148"><ele></ele><time>2014-8-28T16:1:10Z</time></trkpt>
<trkpt lat="44.2560787" lon="8.3187537"><ele></ele><time>2014-8-28T16:1:13Z</time></trkpt>
<trkpt lat="44.2561284" lon="8.3186842"><ele></ele><time>2014-8-28T16:1:16Z</time></trkpt>
<trkpt lat="44.2560850" lon="8.3186574"><ele></ele><time>2014-8-28T16:1:19Z</time></trkpt>
<trkpt lat="44.2561069" lon="8.3186470"><ele></ele><time>2014-8-28T16:1:22Z</time></trkpt>
<trkpt lat="44.2561906" lon="8.3186324"><ele></ele><time>2014-8-28T16:1:25Z</time></trkpt>
<trkpt lat="44.2562064" lon="8.3186548"><ele></ele><time>2014-8-28T16:1:28Z</time></trkpt>
<trkpt lat="44.2563030" lon="8.3185735"><ele></ele><time>2014-8-28T16:1:31Z</time></trkpt>
<trkpt lat="44.2563384" lon="8.3185016"><ele></ele><time>2014-8-28T16:1:34Z</time></trkpt>
<trkpt lat="44.2563715" lon="8.3184534"><ele></ele><time>2014-8-28T16:1:37Z</time></trkpt>
<trkpt lat="44.2563846" lon="8.3184454"><ele></ele><time>2014-8-28T16:1:40Z</time></trkpt>
<trkpt lat="44.2565358" lon="8.3182647"><ele></ele><time>2014-8-28T16:1:43Z</time></trkpt>
<trkpt lat="44.2566642" lon="8.3180906"><ele></ele><time>2014-8-28T16:1:46Z</time></trkpt>
<trkpt lat="44.2567025" lon="8.3181376"><ele></ele><time>2014-8-28T16:1:49Z</time></trkpt>
<trkpt lat="44.2567042" lon="8.3181792"><ele></ele><time>2014-8-28T16:1:52Z</time></trkpt>
<trkpt lat="44.2567005" lon="8.3181870"><ele></ele><time>2014-8-28T16:1:55Z</time></trkpt>
<trkpt lat="44.2566067" lon="8.3184010"><ele></ele><time>2014-8-28T16:1:58Z</time></trkpt>
<trkpt lat="44.2565870" lon="8.3186673"><ele></ele><time>2014-8-28T16:2:1Z</time></trkpt>
<trkpt lat="44.2565179" lon="8.3189506"><ele></ele><time>2014-8-28T16:2:4Z</time></trkpt>
<trkpt lat="44.2564426" lon="8.3191712"><ele></ele><time>2014-8-28T16:2:7Z</time></trkpt>
<trkpt lat="44.2564402" lon="8.3194373"><ele></ele><time>2014-8-28T16:2:10Z</time></trkpt>
<trkpt lat="44.2563415" lon="8.3196529"><ele></ele><time>2014-8-28T16:2:13Z</time></trkpt>
<trkpt lat="44.2562983" lon="8.3200985"><ele></ele><time>2014-8-28T16:2:16Z</time></trkpt>
<trkpt lat="44.2563048" lon="8.3203776"><ele></ele><time>2014-8-28T16:2:19Z</time></trkpt>
<trkpt lat="44.2562623" lon="8.3205037"><ele></ele><time>2014-8-28T16:2:22Z</time></trkpt>
<trkpt lat="44.2562150" lon="8.3205754"><ele></ele><time>2014-8-28T16:2:25Z</time></trkpt>
<trkpt lat="44.2560224" lon="8.3208361"><ele></ele><time>2014-8-28T16:2:28Z</time></trkpt>
<trkpt lat="44.2559561" lon="8.3211144"><ele></ele><time>2014-8-28T16:2:31Z</time></trkpt>
<trkpt lat="44.2559406" lon="8.3211880"><ele></ele><time>2014-8-28T16:2:34Z</time></trkpt>
<trkpt lat="44.2560167" lon="8.3215308"><ele></ele><time>2014-8-28T16:2:37Z</time></trkpt>
<trkpt lat="44.2560052" lon="8.3218585"><ele></ele><time>2014-8-28T16:2:40Z</time></trkpt>
<trkpt lat="44.2557808" lon="8.3220208"><ele></ele><time>2014-8-28T16:2:43Z</time></trkpt>
<trkpt lat="44.2556462" lon="8.3221686"><ele></ele><time>2014-8-28T16:2:46Z</time></trkpt>
<trkpt lat="44.2554969" lon="8.3224206"><ele></ele><time>2014-8-28T16:2:49Z</time></trkpt>
<trkpt lat="44.2552515" lon="8.3226951"><ele></ele><time>2014-8-28T16:2:52Z</time></trkpt>
<trkpt lat="44.2551641" lon="8.3229158"><ele></ele><time>2014-8-28T16:2:55Z</time></trkpt>
<trkpt lat="44.2551604" lon="8.3229267"><ele></ele><time>2014-8-28T16:2:58Z</time></trkpt>
<trkpt lat="44.2551789" lon="8.3230733"><ele></ele><time>2014-8-28T16:3:1Z</time></trkpt>
<trkpt lat="44.2552003" lon="8.3232540"><ele></ele><time>2014-8-28T16:3:4Z</time></trkpt>
<trkpt lat="44.2552064" lon="8.3233156"><ele></ele><time>2014-8-28T16:3:7Z</time></trkpt>
<trkpt lat="44.2552923" lon="8.3237654"><ele></ele><time>2014-8-28T16:3:10Z</time></trkpt>
<trkpt lat="44.2553856" lon="8.3240291"><ele></ele><time>2014-8-28T16:3:13Z</time></trkpt>
<trkpt lat="44.2554106" lon="8.3241007"><ele></ele><time>2014-8-28T16:3:16Z</time></trkpt>
<trkpt lat="44.2554060" lon="8.3240930"><ele></ele><time>2014-8-28T16:3:19Z</time></trkpt>
<trkpt lat="44.2554214" lon="8.3240601"><ele></ele><time>2014-8-28T16:3:22Z</time></trkpt>
<trkpt lat="44.2554473" lon="8.3239864"><ele></ele><time>2014-8-28T16:3:25Z</time></trkpt>
<trkpt lat="44.2554511" lon="8.3237069"><ele></ele><time>2014-8-28T16:3:28Z</time></trkpt>
<trkpt lat="44.2554618" lon="8.3236656"><ele></ele><time>2014-8-28T16:3:31Z</time></trkpt>
<trkpt lat="44.2555069" lon="8.3235743"><ele></ele><time>2014-8-28T16:3:34Z</time></trkpt>
<trkpt lat="44.2556731" lon="8.3234296"><ele></ele><time>2014-8-28T16:3:37Z</time></trkpt>
<trkpt lat="44.2558376" lon="8.3233341"><ele></ele><time>2014-8-28T16:3:40Z</time></trkpt>
<trkpt lat="44.2559758" lon="8.3232481"><ele></ele><time>2014-8-28T16:3:43Z</time></trkpt>
<trkpt lat="44.2560566" lon="8.3232283"><ele></ele><time>2014-8-28T16:3:46Z</time></trkpt>
<trkpt lat="44.2560851" lon="8.3232152"><ele></ele><time>2014-8-28T16:3:49Z</time></trkpt>
<trkpt lat="44.2561296" lon="8.3231952"><ele></ele><time>2014-8-28T16:3:52Z</time></trkpt>
<trkpt lat="44.2562472" lon="8.3231748"><ele></ele><time>2014-8-28T16:3:55Z</time></trkpt>
<trkpt lat="44.2563974" lon="8.3231029"><ele></ele><time>2014-8-28T16:3:58Z</time></trkpt>
<trkpt lat="44.2564896" lon="8.3229574"><ele></ele><time>2014-8-28T16:4:1Z</time></trkpt>
<trkpt lat="44.2564973" lon="8.3229440"><ele></ele><time>2014-8-28T16:4:4Z</time></trkpt>
<trkpt lat="44.2566483" lon="8.3227075"><ele></ele><time>2014-8-28T16:4:7Z</time></trkpt>
<trkpt lat="44.2566817" lon="8.3226497"><ele></ele><time>2014-8-28T16:4:10Z</time></trkpt>
<trkpt lat="44.2567962" lon="8.3225151"><ele></ele><time>2014-8-28T16:4:13Z</time></trkpt>
<trkpt lat="44.2568034" lon="8.3225041"><ele></ele><time>2014-8-28T16:4:16Z</time></trkpt>
<trkpt lat="44.2569482" lon="8.3223032"><ele></ele><time>2014-8-28T16:4:19Z</time></trkpt>
<trkpt lat="44.2570973" lon="8.3219986"><ele></ele><time>2014-8-28T16:4:22Z</time></trkpt>
<trkpt lat="44.2572289" lon="8.3216613"><ele></ele><time>2014-8-28T16:4:25Z</time></trkpt>
<trkpt lat="44.2573889" lon="8.3213173"><ele></ele><time>2014-8-28T16:4:28Z</time></trkpt>
<trkpt lat="44.2575003" lon="8.3209853"><ele></ele><time>2014-8-28T16:4:31Z</time></trkpt>
<trkpt lat="44.2575220" lon="8.3209092"><ele></ele><time>2014-8-28T16:4:34Z</time></trkpt>
<trkpt lat="44.2575885" lon="8.3207755"><ele></ele><time>2014-8-28T16:4:37Z</time></trkpt>
<trkpt lat="44.2577002" lon="8.3205363"><ele></ele><time>2014-8-28T16:4:40Z</time></trkpt>
<trkpt lat="44.2578135" lon="8.3202703"><ele></ele><time>2014-8-28T16:4:43Z</time></trkpt>
<trkpt lat="44.2579813" lon="8.3200221"><ele></ele><time>2014-8-28T16:4:46Z</time></trkpt>
<trkpt lat="44.2580748" lon="8.3199069"><ele></ele><time>2014-8-28T16:4:49Z</time></trkpt>
<trkpt lat="44.2581285" lon="8.3198207"><ele></ele><time>2014-8-28T16:4:52Z</time></trkpt>
<trkpt lat="44.2582592" lon="8.3194982"><ele></ele><time>2014-8-28T16:4:55Z</time></trkpt>
<trkpt lat="44.2583274" lon="8.3193319"><ele></ele><time>2014-8-28T16:4:58Z</time></trkpt>
<trkpt lat="44.2585406" lon="8.3190687"><ele></ele><time>2014-8-28T16:5:1Z</time></trkpt>
<trkpt lat="44.2587123" lon="8.3189759"><ele></ele><time>2014-8-28T16:5:4Z</time></trkpt>
<trkpt lat="44.2588668" lon="8.3188453"><ele></ele><time>2014-8-28T16:5:7Z</time></trkpt>
<trkpt lat="44.2589927" lon="8.3185779"><ele></ele><time>2014-8-28T16:5:10Z</time></trkpt>
<trkpt lat="44.2590729" lon="8.3183186"><ele></ele><time>2014-8-28T16:5:13Z</time></trkpt>
<trkpt lat="44.2591818" lon="8.3180245"><ele></ele><time>2014-8-28T16:5:16Z</time></trkpt>
<trkpt lat="44.2593444" lon="8.3177787"><ele></ele><time>2014-8-28T16:5:19Z</time></trkpt>
<trkpt lat="44.2594040" lon="8.3176835"><ele></ele><time>2014-8-28T16:5:22Z</time></trkpt>
<trkpt lat="44.2593971" lon="8.3176991"><ele></ele><time>2014-8-28T16:5:25Z</time></trkpt>
<trkpt lat="44.2594639" lon="8.3176752"><ele></ele><time>2014-8-28T16:5:28Z</time></trkpt>
<trkpt lat="44.2594206" lon="8.3176795"><ele></ele><time>2014-8-28T16:5:31Z</time></trkpt>
<trkpt lat="44.2594636" lon="8.3175923"><ele></ele><time>2014-8-28T16:5:34Z</time></trkpt>
<trkpt lat="44.2594988" lon="8.3172717"><ele></ele><time>2014-8-28T16:5:37Z</time></trkpt>
<trkpt lat="44.2595858" lon="8.3169535"><ele></ele><time>2014-8-28T16:5:40Z</time></trkpt>
<trkpt lat="44.2596589" lon="8.3166697"><ele></ele><time>2014-8-28T16:5:43Z</time></trkpt>
<trkpt lat="44.2596872" lon="8.3164108"><ele></ele><time>2014-8-28T16:5:46Z</time></trkpt>
<trkpt lat="44.2596877" lon="8.3163197"><ele></ele><time>2014-8-28T16:5:49Z</time></trkpt>
<trkpt lat="44.2597106" lon="8.3160077"><ele></ele><time>2014-8-28T16:5:52Z</time></trkpt>
<trkpt lat="44.2597503" lon="8.3156579"><ele></ele><time>2014-8-28T16:5:55Z</time></trkpt>
<trkpt lat="44.2596944" lon="8.3153608"><ele></ele><time>2014-8-28T16:5:58Z</time></trkpt>
<trkpt lat="44.2595906" lon="8.3150309"><ele></ele><time>2014-8-28T16:6:1Z</time></trkpt>
<trkpt lat="44.2594033" lon="8.3146675"><ele></ele><time>2014-8-28T16:6:4Z</time></trkpt>
<trkpt lat="44.2594124" lon="8.3143253"><ele></ele><time>2014-8-28T16:6:7Z</time></trkpt>
<trkpt lat="44.2594418" lon="8.3141865"><ele></ele><time>2014-8-28T16:6:10Z</time></trkpt>
<trkpt lat="44.2595027" lon="8.3136373"><ele></ele><time>2014-8-28T16:6:13Z</time></trkpt>
<trkpt lat="44.2595402" lon="8.3131064"><ele></ele><time>2014-8-28T16:6:16Z</time></trkpt>
<trkpt lat="44.2595842" lon="8.3126108"><ele></ele><time>2014-8-28T16:6:19Z</time></trkpt>
<trkpt lat="44.2596221" lon="8.3121771"><ele></ele><time>2014-8-28T16:6:22Z</time></trkpt>
<trkpt lat="44.2596739" lon="8.3118405"><ele></ele><time>2014-8-28T16:6:25Z</time></trkpt>
<trkpt lat="44.2597332" lon="8.3114858"><ele></ele><time>2014-8-28T16:6:28Z</time></trkpt>
<trkpt lat="44.2597981" lon="8.3112634"><ele></ele><time>2014-8-28T16:6:31Z</time></trkpt>
<trkpt lat="44.2598158" lon="8.3111411"><ele></ele><time>2014-8-28T16:6:34Z</time></trkpt>
<trkpt lat="44.2597817" lon="8.3107188"><ele></ele><time>2014-8-28T16:6:37Z</time></trkpt>
<trkpt lat="44.2596795" lon="8.3104131"><ele></ele><time>2014-8-28T16:6:40Z</time></trkpt>
<trkpt lat="44.2596112" lon="8.3103076"><ele></ele><time>2014-8-28T16:6:43Z</time></trkpt>
<trkpt lat="44.2595932" lon="8.3102980"><ele></ele><time>2014-8-28T16:6:46Z</time></trkpt>
<trkpt lat="44.2593895" lon="8.3101553"><ele></ele><time>2014-8-28T16:6:49Z</time></trkpt>
<trkpt lat="44.2593320" lon="8.3101443"><ele></ele><time>2014-8-28T16:6:52Z</time></trkpt>
<trkpt lat="44.2592096" lon="8.3101312"><ele></ele><time>2014-8-28T16:6:55Z</time></trkpt>
<trkpt lat="44.2587419" lon="8.3102179"><ele></ele><time>2014-8-28T16:6:58Z</time></trkpt>
<trkpt lat="44.2582762" lon="8.3102443"><ele></ele><time>2014-8-28T16:7:1Z</time></trkpt>
<trkpt lat="44.2579386" lon="8.3102341"><ele></ele><time>2014-8-28T16:7:4Z</time></trkpt>
<trkpt lat="44.2575889" lon="8.3097978"><ele></ele><time>2014-8-28T16:7:7Z</time></trkpt>
<trkpt lat="44.2572356" lon="8.3095480"><ele></ele><time>2014-8-28T16:7:10Z</time></trkpt>
<trkpt lat="44.2570632" lon="8.3093493"><ele></ele><time>2014-8-28T16:7:13Z</time></trkpt>
<trkpt lat="44.2569380" lon="8.3092299"><ele></ele><time>2014-8-28T16:7:16Z</time></trkpt>
<trkpt lat="44.2566275" lon="8.3090593"><ele></ele><time>2014-8-28T16:7:19Z</time></trkpt>
<trkpt lat="44.2563991" lon="8.3088479"><ele></ele><time>2014-8-28T16:7:22Z</time></trkpt>
<trkpt lat="44.2563283" lon="8.3086559"><ele></ele><time>2014-8-28T16:7:25Z</time></trkpt>
<trkpt lat="44.2560576" lon="8.3083275"><ele></ele><time>2014-8-28T16:7:28Z</time></trkpt>
<trkpt lat="44.2557860" lon="8.3081055"><ele></ele><time>2014-8-28T16:7:31Z</time></trkpt>
<trkpt lat="44.2553722" lon="8.3078408"><ele></ele><time>2014-8-28T16:7:34Z</time></trkpt>
<trkpt lat="44.2551288" lon="8.3075120"><ele></ele><time>2014-8-28T16:7:37Z</time></trkpt>
<trkpt lat="44.2549083" lon="8.3072523"><ele></ele><time>2014-8-28T16:7:40Z</time></trkpt>
<trkpt lat="44.2546124" lon="8.3070874"><ele></ele><time>2014-8-28T16:7:43Z</time></trkpt>
<trkpt lat="44.2545524" lon="8.3067862"><ele></ele><time>2014-8-28T16:7:46Z</time></trkpt>
<trkpt lat="44.2546036" lon="8.3066296"><ele></ele><time>2014-8-28T16:7:49Z</time></trkpt>
<trkpt lat="44.2546187" lon="8.3061795"><ele></ele><time>2014-8-28T16:7:52Z</time></trkpt>
<trkpt lat="44.2545923" lon="8.3061049"><ele></ele><time>2014-8-28T16:7:55Z</time></trkpt>
<trkpt lat="44.2544926" lon="8.3058035"><ele></ele><time>2014-8-28T16:7:58Z</time></trkpt>
<trkpt lat="44.2543430" lon="8.3053982"><ele></ele><time>2014-8-28T16:8:1Z</time></trkpt>
<trkpt lat="44.2543341" lon="8.3053682"><ele></ele><time>2014-8-28T16:8:4Z</time></trkpt>
<trkpt lat="44.2542809" lon="8.3052371"><ele></ele><time>2014-8-28T16:8:7Z</time></trkpt>
<trkpt lat="44.2543305" lon="8.3051560"><ele></ele><time>2014-8-28T16:8:10Z</time></trkpt>
<trkpt lat="44.2543222" lon="8.3049446"><ele></ele><time>2014-8-28T16:8:13Z</time></trkpt>
<trkpt lat="44.2542849" lon="8.3044700"><ele></ele><time>2014-8-28T16:8:16Z</time></trkpt>
<trkpt lat="44.2543304" lon="8.3041131"><ele></ele><time>2014-8-28T16:8:19Z</time></trkpt>
<trkpt lat="44.2544829" lon="8.3036675"><ele></ele><time>2014-8-28T16:8:22Z</time></trkpt>
<trkpt lat="44.2546694" lon="8.3033450"><ele></ele><time>2014-8-28T16:8:25Z</time></trkpt>
<trkpt lat="44.2547445" lon="8.3030913"><ele></ele><time>2014-8-28T16:8:28Z</time></trkpt>
<trkpt lat="44.2547282" lon="8.3026406"><ele></ele><time>2014-8-28T16:8:31Z</time></trkpt>
<trkpt lat="44.2549206" lon="8.3023240"><ele></ele><time>2014-8-28T16:8:34Z</time></trkpt>
<trkpt lat="44.2550921" lon="8.3020360"><ele></ele><time>2014-8-28T16:8:37Z</time></trkpt>
<trkpt lat="44.2553230" lon="8.3017502"><ele></ele><time>2014-8-28T16:8:40Z</time></trkpt>
<trkpt lat="44.2554879" lon="8.3014131"><ele></ele><time>2014-8-28T16:8:43Z</time></trkpt>
<trkpt lat="44.2556299" lon="8.3008592"><ele></ele><time>2014-8-28T16:8:46Z</time></trkpt>
<trkpt lat="44.2558285" lon="8.3005124"><ele></ele><time>2014-8-28T16:8:49Z</time></trkpt>
<trkpt lat="44.2560535" lon="8.3001178"><ele></ele><time>2014-8-28T16:8:52Z</time></trkpt>
<trkpt lat="44.2562227" lon="8.2997360"><ele></ele><time>2014-8-28T16:8:55Z</time></trkpt>
<trkpt lat="44.2562541" lon="8.2996540"><ele></ele><time>2014-8-28T16:8:58Z</time></trkpt>
<trkpt lat="44.2563451" lon="8.2996479"><ele></ele><time>2014-8-28T16:9:1Z</time></trkpt>
<trkpt lat="44.2562647" lon="8.2995854"><ele></ele><time>2014-8-28T16:9:4Z</time></trkpt>
<trkpt lat="44.2562901" lon="8.2994282"><ele></ele><time>2014-8-28T16:9:7Z</time></trkpt>
<trkpt lat="44.2562664" lon="8.2989925"><ele></ele><time>2014-8-28T16:9:10Z</time></trkpt>
<trkpt lat="44.2563121" lon="8.2989241"><ele></ele><time>2014-8-28T16:9:13Z</time></trkpt>
<trkpt lat="44.2562522" lon="8.2989425"><ele></ele><time>2014-8-28T16:9:16Z</time></trkpt>
<trkpt lat="44.2562427" lon="8.2989081"><ele></ele><time>2014-8-28T16:9:19Z</time></trkpt>
<trkpt lat="44.2561715" lon="8.2988652"><ele></ele><time>2014-8-28T16:9:22Z</time></trkpt>
<trkpt lat="44.2562124" lon="8.2989443"><ele></ele><time>2014-8-28T16:9:25Z</time></trkpt>
<trkpt lat="44.2562123" lon="8.2989171"><ele></ele><time>2014-8-28T16:9:28Z</time></trkpt>
<trkpt lat="44.2561740" lon="8.2988571"><ele></ele><time>2014-8-28T16:9:31Z</time></trkpt>
<trkpt lat="44.2561391" lon="8.2989010"><ele></ele><time>2014-8-28T16:9:34Z</time></trkpt>
<trkpt lat="44.2562069" lon="8.2988589"><ele></ele><time>2014-8-28T16:9:37Z</time></trkpt>
<trkpt lat="44.2562280" lon="8.2988792"><ele></ele><time>2014-8-28T16:9:40Z</time></trkpt>
<trkpt lat="44.2562110" lon="8.2989542"><ele></ele><time>2014-8-28T16:9:43Z</time></trkpt>
<trkpt lat="44.2561637" lon="8.2989967"><ele></ele><time>2014-8-28T16:9:46Z</time></trkpt>
<trkpt lat="44.2561746" lon="8.2989609"><ele></ele><time>2014-8-28T16:9:49Z</time></trkpt>
<trkpt lat="44.2560375" lon="8.2989279"><ele></ele><time>2014-8-28T16:9:52Z</time></trkpt>
<trkpt lat="44.2561209" lon="8.2987771"><ele></ele><time>2014-8-28T16:9:55Z</time></trkpt>
<trkpt lat="44.2561264" lon="8.2988289"><ele></ele><time>2014-8-28T16:9:58Z</time></trkpt>
<trkpt lat="44.2561424" lon="8.2989435"><ele></ele><time>2014-8-28T16:10:1Z</time></trkpt>
<trkpt lat="44.2561408" lon="8.2989937"><ele></ele><time>2014-8-28T16:10:4Z</time></trkpt>
<trkpt lat="44.2561373" lon="8.2987760"><ele></ele><time>2014-8-28T16:10:7Z</time></trkpt>
<trkpt lat="44.2561223" lon="8.2986564"><ele></ele><time>2014-8-28T16:10:10Z</time></trkpt>
<trkpt lat="44.2560122" lon="8.2984249"><ele></ele><time>2014-8-28T16:10:13Z</time></trkpt>
<trkpt lat="44.2559002" lon="8.2981746"><ele></ele><time>2014-8-28T16:10:16Z</time></trkpt>
<trkpt lat="44.2558825" lon="8.2980856"><ele></ele><time>2014-8-28T16:10:19Z</time></trkpt>
<trkpt lat="44.2559482" lon="8.2980479"><ele></ele><time>2014-8-28T16:10:22Z</time></trkpt>
<trkpt lat="44.2559556" lon="8.2980395"><ele></ele><time>2014-8-28T16:10:25Z</time></trkpt>
<trkpt lat="44.2558588" lon="8.2979825"><ele></ele><time>2014-8-28T16:10:28Z</time></trkpt>
<trkpt lat="44.2558365" lon="8.2979541"><ele></ele><time>2014-8-28T16:10:31Z</time></trkpt>
<trkpt lat="44.2558679" lon="8.2978910"><ele></ele><time>2014-8-28T16:10:34Z</time></trkpt>
<trkpt lat="44.2558660" lon="8.2976563"><ele></ele><time>2014-8-28T16:10:37Z</time></trkpt>
<trkpt lat="44.2558383" lon="8.2975332"><ele></ele><time>2014-8-28T16:10:40Z</time></trkpt>
<trkpt lat="44.2555861" lon="8.2971345"><ele></ele><time>2014-8-28T16:10:43Z</time></trkpt>
<trkpt lat="44.2554752" lon="8.2969725"><ele></ele><time>2014-8-28T16:10:46Z</time></trkpt>
<trkpt lat="44.2554750" lon="8.2969125"><ele></ele><time>2014-8-28T16:10:49Z</time></trkpt>
<trkpt lat="44.2554762" lon="8.2968745"><ele></ele><time>2014-8-28T16:10:52Z</time></trkpt>
<trkpt lat="44.2554857" lon="8.2968550"><ele></ele><time>2014-8-28T16:10:55Z</time></trkpt>
<trkpt lat="44.2554576" lon="8.2968871"><ele></ele><time>2014-8-28T16:10:58Z</time></trkpt>
<trkpt lat="44.2553438" lon="8.2967303"><ele></ele><time>2014-8-28T16:11:1Z</time></trkpt>
<trkpt lat="44.2552132" lon="8.2965063"><ele></ele><time>2014-8-28T16:11:4Z</time></trkpt>
<trkpt lat="44.2551154" lon="8.2962597"><ele></ele><time>2014-8-28T16:11:7Z</time></trkpt>
<trkpt lat="44.2550303" lon="8.2959771"><ele></ele><time>2014-8-28T16:11:10Z</time></trkpt>
<trkpt lat="44.2549895" lon="8.2957292"><ele></ele><time>2014-8-28T16:11:13Z</time></trkpt>
<trkpt lat="44.2549729" lon="8.2954164"><ele></ele><time>2014-8-28T16:11:16Z</time></trkpt>
<trkpt lat="44.2549466" lon="8.2952398"><ele></ele><time>2014-8-28T16:11:19Z</time></trkpt>
<trkpt lat="44.2549396" lon="8.2950813"><ele></ele><time>2014-8-28T16:11:22Z</time></trkpt>
<trkpt lat="44.2549298" lon="8.2949335"><ele></ele><time>2014-8-28T16:11:25Z</time></trkpt>
<trkpt lat="44.2549585" lon="8.2945083"><ele></ele><time>2014-8-28T16:11:28Z</time></trkpt>
<trkpt lat="44.2549790" lon="8.2943656"><ele></ele><time>2014-8-28T16:11:31Z</time></trkpt>
<trkpt lat="44.2549054" lon="8.2942379"><ele></ele><time>2014-8-28T16:11:34Z</time></trkpt>
<trkpt lat="44.2545057" lon="8.2941452"><ele></ele><time>2014-8-28T16:11:37Z</time></trkpt>
<trkpt lat="44.2543440" lon="8.2938609"><ele></ele><time>2014-8-28T16:11:40Z</time></trkpt>
<trkpt lat="44.2543327" lon="8.2937973"><ele></ele><time>2014-8-28T16:11:43Z</time></trkpt>
<trkpt lat="44.2543206" lon="8.2936588"><ele></ele><time>2014-8-28T16:11:46Z</time></trkpt>
<trkpt lat="44.2542843" lon="8.2932926"><ele></ele><time>2014-8-28T16:11:49Z</time></trkpt>
<trkpt lat="44.2542397" lon="8.2932426"><ele></ele><time>2014-8-28T16:11:52Z</time></trkpt>
<trkpt lat="44.2541467" lon="8.2933337"><ele></ele><time>2014-8-28T16:11:55Z</time></trkpt>
<trkpt lat="44.2540882" lon="8.2934598"><ele></ele><time>2014-8-28T16:11:58Z</time></trkpt>
<trkpt lat="44.2540168" lon="8.2935954"><ele></ele><time>2014-8-28T16:12:1Z</time></trkpt>
<trkpt lat="44.2539852" lon="8.2936606"><ele></ele><time>2014-8-28T16:12:4Z</time></trkpt>
<trkpt lat="44.2539192" lon="8.2938906"><ele></ele><time>2014-8-28T16:12:7Z</time></trkpt>
<trkpt lat="44.2538649" lon="8.2941152"><ele></ele><time>2014-8-28T16:12:10Z</time></trkpt>
<trkpt lat="44.2538389" lon="8.2942250"><ele></ele><time>2014-8-28T16:12:13Z</time></trkpt>
<trkpt lat="44.2538209" lon="8.2944713"><ele></ele><time>2014-8-28T16:12:16Z</time></trkpt>
<trkpt lat="44.2538384" lon="8.2946383"><ele></ele><time>2014-8-28T16:12:19Z</time></trkpt>
<trkpt lat="44.2538302" lon="8.2946752"><ele></ele><time>2014-8-28T16:12:22Z</time></trkpt>
<trkpt lat="44.2537142" lon="8.2946656"><ele></ele><time>2014-8-28T16:12:25Z</time></trkpt>
<trkpt lat="44.2536348" lon="8.2946004"><ele></ele><time>2014-8-28T16:12:28Z</time></trkpt>
<trkpt lat="44.2534318" lon="8.2943176"><ele></ele><time>2014-8-28T16:12:31Z</time></trkpt>
<trkpt lat="44.2532805" lon="8.2940545"><ele></ele><time>2014-8-28T16:12:34Z</time></trkpt>
<trkpt lat="44.2531765" lon="8.2939018"><ele></ele><time>2014-8-28T16:12:37Z</time></trkpt>
<trkpt lat="44.2531723" lon="8.2938357"><ele></ele><time>2014-8-28T16:12:40Z</time></trkpt>
<trkpt lat="44.2532412" lon="8.2934722"><ele></ele><time>2014-8-28T16:12:43Z</time></trkpt>
<trkpt lat="44.2532462" lon="8.2932781"><ele></ele><time>2014-8-28T16:12:46Z</time></trkpt>
<trkpt lat="44.2532770" lon="8.2931706"><ele></ele><time>2014-8-28T16:12:49Z</time></trkpt>
<trkpt lat="44.2532747" lon="8.2930707"><ele></ele><time>2014-8-28T16:12:52Z</time></trkpt>
<trkpt lat="44.2532824" lon="8.2929885"><ele></ele><time>2014-8-28T16:12:55Z</time></trkpt>
<trkpt lat="44.2532731" lon="8.2926600"><ele></ele><time>2014-8-28T16:12:58Z</time></trkpt>
<trkpt lat="44.2532586" lon="8.2925339"><ele></ele><time>2014-8-28T16:13:1Z</time></trkpt>
<trkpt lat="44.2532624" lon="8.2921763"><ele></ele><time>2014-8-28T16:13:4Z</time></trkpt>
<trkpt lat="44.2532840" lon="8.2919541"><ele></ele><time>2014-8-28T16:13:7Z</time></trkpt>
<trkpt lat="44.2533189" lon="8.2917820"><ele></ele><time>2014-8-28T16:13:10Z</time></trkpt>
<trkpt lat="44.2533177" lon="8.2917099"><ele></ele><time>2014-8-28T16:13:13Z</time></trkpt>
<trkpt lat="44.2533692" lon="8.2914614"><ele></ele><time>2014-8-28T16:13:16Z</time></trkpt>
<trkpt lat="44.2532754" lon="8.2912855"><ele></ele><time>2014-8-28T16:13:19Z</time></trkpt>
<trkpt lat="44.2531822" lon="8.2912161"><ele></ele><time>2014-8-28T16:13:22Z</time></trkpt>
<trkpt lat="44.2530164" lon="8.2910828"><ele></ele><time>2014-8-28T16:13:25Z</time></trkpt>
<trkpt lat="44.2529413" lon="8.2910252"><ele></ele><time>2014-8-28T16:13:28Z</time></trkpt>
<trkpt lat="44.2528983" lon="8.2909328"><ele></ele><time>2014-8-28T16:13:31Z</time></trkpt>
<trkpt lat="44.2528982" lon="8.2907773"><ele></ele><time>2014-8-28T16:13:34Z</time></trkpt>
<trkpt lat="44.2528998" lon="8.2907616"><ele></ele><time>2014-8-28T16:13:37Z</time></trkpt>
<trkpt lat="44.2527558" lon="8.2905735"><ele></ele><time>2014-8-28T16:13:40Z</time></trkpt>
<trkpt lat="44.2526725" lon="8.2905357"><ele></ele><time>2014-8-28T16:13:43Z</time></trkpt>
<trkpt lat="44.2524992" lon="8.2906288"><ele></ele><time>2014-8-28T16:13:46Z</time></trkpt>
<trkpt lat="44.2523594" lon="8.2907404"><ele></ele><time>2014-8-28T16:13:49Z</time></trkpt>
<trkpt lat="44.2522025" lon="8.2909232"><ele></ele><time>2014-8-28T16:13:52Z</time></trkpt>
<trkpt lat="44.2521119" lon="8.2910095"><ele></ele><time>2014-8-28T16:13:55Z</time></trkpt>
<trkpt lat="44.2520844" lon="8.2910437"><ele></ele><time>2014-8-28T16:13:58Z</time></trkpt>
<trkpt lat="44.2520618" lon="8.2912073"><ele></ele><time>2014-8-28T16:14:1Z</time></trkpt>
<trkpt lat="44.2520586" lon="8.2912914"><ele></ele><time>2014-8-28T16:14:4Z</time></trkpt>
<trkpt lat="44.2520523" lon="8.2913223"><ele></ele><time>2014-8-28T16:14:7Z</time></trkpt>
<trkpt lat="44.2519999" lon="8.2914290"><ele></ele><time>2014-8-28T16:14:10Z</time></trkpt>
<trkpt lat="44.2519393" lon="8.2915272"><ele></ele><time>2014-8-28T16:14:13Z</time></trkpt>
<trkpt lat="44.2518886" lon="8.2916202"><ele></ele><time>2014-8-28T16:14:16Z</time></trkpt>
<trkpt lat="44.2518320" lon="8.2914423"><ele></ele><time>2014-8-28T16:14:19Z</time></trkpt>
<trkpt lat="44.2517313" lon="8.2912914"><ele></ele><time>2014-8-28T16:14:22Z</time></trkpt>
<trkpt lat="44.2515538" lon="8.2915344"><ele></ele><time>2014-8-28T16:14:25Z</time></trkpt>
<trkpt lat="44.2515131" lon="8.2916466"><ele></ele><time>2014-8-28T16:14:28Z</time></trkpt>
<trkpt lat="44.2514824" lon="8.2916938"><ele></ele><time>2014-8-28T16:14:31Z</time></trkpt>
<trkpt lat="44.2513642" lon="8.2919230"><ele></ele><time>2014-8-28T16:14:34Z</time></trkpt>
<trkpt lat="44.2512834" lon="8.2920720"><ele></ele><time>2014-8-28T16:14:37Z</time></trkpt>
<trkpt lat="44.2510371" lon="8.2924279"><ele></ele><time>2014-8-28T16:14:40Z</time></trkpt>
<trkpt lat="44.2509733" lon="8.2925186"><ele></ele><time>2014-8-28T16:14:43Z</time></trkpt>
<trkpt lat="44.2509340" lon="8.2925432"><ele></ele><time>2014-8-28T16:14:46Z</time></trkpt>
<trkpt lat="44.2510271" lon="8.2925322"><ele></ele><time>2014-8-28T16:14:49Z</time></trkpt>
<trkpt lat="44.2510019" lon="8.2924959"><ele></ele><time>2014-8-28T16:14:52Z</time></trkpt>
<trkpt lat="44.2510104" lon="8.2923900"><ele></ele><time>2014-8-28T16:14:55Z</time></trkpt>
<trkpt lat="44.2510631" lon="8.2922616"><ele></ele><time>2014-8-28T16:14:58Z</time></trkpt>
<trkpt lat="44.2510861" lon="8.2920626"><ele></ele><time>2014-8-28T16:15:1Z</time></trkpt>
<trkpt lat="44.2510702" lon="8.2920102"><ele></ele><time>2014-8-28T16:15:4Z</time></trkpt>
<trkpt lat="44.2510900" lon="8.2919290"><ele></ele><time>2014-8-28T16:15:7Z</time></trkpt>
<trkpt lat="44.2510842" lon="8.2918933"><ele></ele><time>2014-8-28T16:15:10Z</time></trkpt>
<trkpt lat="44.2510107" lon="8.2918313"><ele></ele><time>2014-8-28T16:15:13Z</time></trkpt>
<trkpt lat="44.2510128" lon="8.2918246"><ele></ele><time>2014-8-28T16:15:16Z</time></trkpt>
<trkpt lat="44.2510629" lon="8.2918369"><ele></ele><time>2014-8-28T16:15:19Z</time></trkpt>
<trkpt lat="44.2509780" lon="8.2918265"><ele></ele><time>2014-8-28T16:15:22Z</time></trkpt>
<trkpt lat="44.2509724" lon="8.2918134"><ele></ele><time>2014-8-28T16:15:25Z</time></trkpt>
<trkpt lat="44.2507605" lon="8.2917095"><ele></ele><time>2014-8-28T16:15:28Z</time></trkpt>
<trkpt lat="44.2506611" lon="8.2917176"><ele></ele><time>2014-8-28T16:15:31Z</time></trkpt>
<trkpt lat="44.2505824" lon="8.2916870"><ele></ele><time>2014-8-28T16:15:34Z</time></trkpt>
<trkpt lat="44.2505128" lon="8.2915231"><ele></ele><time>2014-8-28T16:15:37Z</time></trkpt>
<trkpt lat="44.2504906" lon="8.2913741"><ele></ele><time>2014-8-28T16:15:40Z</time></trkpt>
<trkpt lat="44.2503371" lon="8.2911628"><ele></ele><time>2014-8-28T16:15:43Z</time></trkpt>
<trkpt lat="44.2502025" lon="8.2910657"><ele></ele><time>2014-8-28T16:15:46Z</time></trkpt>
<trkpt lat="44.2501020" lon="8.2909814"><ele></ele><time>2014-8-28T16:15:49Z</time></trkpt>
<trkpt lat="44.2499689" lon="8.2907429"><ele></ele><time>2014-8-28T16:15:52Z</time></trkpt>
<trkpt lat="44.2499416" lon="8.2906627"><ele></ele><time>2014-8-28T16:15:55Z</time></trkpt>
<trkpt lat="44.2499320" lon="8.2906494"><ele></ele><time>2014-8-28T16:15:58Z</time></trkpt>
<trkpt lat="44.2498539" lon="8.2906501"><ele></ele><time>2014-8-28T16:16:1Z</time></trkpt>
<trkpt lat="44.2497420" lon="8.2906046"><ele></ele><time>2014-8-28T16:16:4Z</time></trkpt>
<trkpt lat="44.2497136" lon="8.2904355"><ele></ele><time>2014-8-28T16:16:7Z</time></trkpt>
<trkpt lat="44.2495306" lon="8.2905211"><ele></ele><time>2014-8-28T16:16:10Z</time></trkpt>
<trkpt lat="44.2492860" lon="8.2904620"><ele></ele><time>2014-8-28T16:16:13Z</time></trkpt>
<trkpt lat="44.2492457" lon="8.2904280"><ele></ele><time>2014-8-28T16:16:16Z</time></trkpt>
<trkpt lat="44.2490619" lon="8.2902664"><ele></ele><time>2014-8-28T16:16:19Z</time></trkpt>
<trkpt lat="44.2489412" lon="8.2900802"><ele></ele><time>2014-8-28T16:16:22Z</time></trkpt>
<trkpt lat="44.2488849" lon="8.2899840"><ele></ele><time>2014-8-28T16:16:25Z</time></trkpt>
<trkpt lat="44.2488403" lon="8.2898343"><ele></ele><time>2014-8-28T16:16:28Z</time></trkpt>
<trkpt lat="44.2487676" lon="8.2897980"><ele></ele><time>2014-8-28T16:16:31Z</time></trkpt>
<trkpt lat="44.2487485" lon="8.2898011"><ele></ele><time>2014-8-28T16:16:34Z</time></trkpt>
<trkpt lat="44.2486453" lon="8.2898131"><ele></ele><time>2014-8-28T16:16:37Z</time></trkpt>
<trkpt lat="44.2486263" lon="8.2898508"><ele></ele><time>2014-8-28T16:16:40Z</time></trkpt>
<trkpt lat="44.2484722" lon="8.2900148"><ele></ele><time>2014-8-28T16:16:43Z</time></trkpt>
<trkpt lat="44.2484473" lon="8.2900319"><ele></ele><time>2014-8-28T16:16:46Z</time></trkpt>
<trkpt lat="44.2482909" lon="8.2900849"><ele></ele><time>2014-8-28T16:16:49Z</time></trkpt>
<trkpt lat="44.2482262" lon="8.2900379"><ele></ele><time>2014-8-28T16:16:52Z</time></trkpt>
<trkpt lat="44.2480865" lon="8.2900032"><ele></ele><time>2014-8-28T16:16:55Z</time></trkpt>
<trkpt lat="44.2478684" lon="8.2901723"><ele></ele><time>2014-8-28T16:16:58Z</time></trkpt>
<trkpt lat="44.2476497" lon="8.2902808"><ele></ele><time>2014-8-28T16:17:1Z</time></trkpt>
<trkpt lat="44.2473623" lon="8.2903263"><ele></ele><time>2014-8-28T16:17:4Z</time></trkpt>
<trkpt lat="44.2471249" lon="8.2904180"><ele></ele><time>2014-8-28T16:17:7Z</time></trkpt>
<trkpt lat="44.2468433" lon="8.2903963"><ele></ele><time>2014-8-28T16:17:10Z</time></trkpt>
<trkpt lat="44.2464121" lon="8.2903906"><ele></ele><time>2014-8-28T16:17:13Z</time></trkpt>
<trkpt lat="44.2463650" lon="8.2903855"><ele></ele><time>2014-8-28T16:17:16Z</time></trkpt>
<trkpt lat="44.2462713" lon="8.2903486"><ele></ele><time>2014-8-28T16:17:19Z</time></trkpt>
<trkpt lat="44.2459900" lon="8.2903999"><ele></ele><time>2014-8-28T16:17:22Z</time></trkpt>
<trkpt lat="44.2458669" lon="8.2904555"><ele></ele><time>2014-8-28T16:17:25Z</time></trkpt>
<trkpt lat="44.2456885" lon="8.2906114"><ele></ele><time>2014-8-28T16:17:28Z</time></trkpt>
<trkpt lat="44.2455062" lon="8.2908470"><ele></ele><time>2014-8-28T16:17:31Z</time></trkpt>
<trkpt lat="44.2454948" lon="8.2908633"><ele></ele><time>2014-8-28T16:17:34Z</time></trkpt>
<trkpt lat="44.2454136" lon="8.2909905"><ele></ele><time>2014-8-28T16:17:37Z</time></trkpt>
<trkpt lat="44.2453757" lon="8.2910232"><ele></ele><time>2014-8-28T16:17:40Z</time></trkpt>
<trkpt lat="44.2453772" lon="8.2910251"><ele></ele><time>2014-8-28T16:17:43Z</time></trkpt>
<trkpt lat="44.2454332" lon="8.2910133"><ele></ele><time>2014-8-28T16:17:46Z</time></trkpt>
<trkpt lat="44.2454062" lon="8.2909776"><ele></ele><time>2014-8-28T16:17:49Z</time></trkpt>
<trkpt lat="44.2453856" lon="8.2911930"><ele></ele><time>2014-8-28T16:17:52Z</time></trkpt>
<trkpt lat="44.2453606" lon="8.2913961"><ele></ele><time>2014-8-28T16:17:55Z</time></trkpt>
<trkpt lat="44.2453083" lon="8.2917479"><ele></ele><time>2014-8-28T16:17:58Z</time></trkpt>
<trkpt lat="44.2452033" lon="8.2920933"><ele></ele><time>2014-8-28T16:18:1Z</time></trkpt>
<trkpt lat="44.2451727" lon="8.2922078"><ele></ele><time>2014-8-28T16:18:4Z</time></trkpt>
<trkpt lat="44.2450619" lon="8.2926285"><ele></ele><time>2014-8-28T16:18:7Z</time></trkpt>
<trkpt lat="44.2449580" lon="8.2929035"><ele></ele><time>2014-8-28T16:18:10Z</time></trkpt>
<trkpt lat="44.2447587" lon="8.2932800"><ele></ele><time>2014-8-28T16:18:13Z</time></trkpt>
<trkpt lat="44.2446977" lon="8.2934127"><ele></ele><time>2014-8-28T16:18:16Z</time></trkpt>
<trkpt lat="44.2445499" lon="8.2936753"><ele></ele><time>2014-8-28T16:18:19Z</time></trkpt>
<trkpt lat="44.2445340" lon="8.2936992"><ele></ele><time>2014-8-28T16:18:22Z</time></trkpt>
<trkpt lat="44.2444672" lon="8.2938374"><ele></ele><time>2014-8-28T16:18:25Z</time></trkpt>
<trkpt lat="44.2444934" lon="8.2939238"><ele></ele><time>2014-8-28T16:18:28Z</time></trkpt>
<trkpt lat="44.2446679" lon="8.2940378"><ele></ele><time>2014-8-28T16:18:31Z</time></trkpt>
<trkpt lat="44.2447920" lon="8.2940389"><ele></ele><time>2014-8-28T16:18:34Z</time></trkpt>
<trkpt lat="44.2448409" lon="8.2940405"><ele></ele><time>2014-8-28T16:18:37Z</time></trkpt>
<trkpt lat="44.2450437" lon="8.2941016"><ele></ele><time>2014-8-28T16:18:40Z</time></trkpt>
<trkpt lat="44.2452504" lon="8.2940788"><ele></ele><time>2014-8-28T16:18:43Z</time></trkpt>
<trkpt lat="44.2454152" lon="8.2940300"><ele></ele><time>2014-8-28T16:18:46Z</time></trkpt>
<trkpt lat="44.2455331" lon="8.2940224"><ele></ele><time>2014-8-28T16:18:49Z</time></trkpt>
<trkpt lat="44.2456461" lon="8.2940161"><ele></ele><time>2014-8-28T16:18:52Z</time></trkpt>
<trkpt lat="44.2457921" lon="8.2939913"><ele></ele><time>2014-8-28T16:18:55Z</time></trkpt>
<trkpt lat="44.2459580" lon="8.2939212"><ele></ele><time>2014-8-28T16:18:58Z</time></trkpt>
<trkpt lat="44.2460932" lon="8.2938483"><ele></ele><time>2014-8-28T16:19:1Z</time></trkpt>
<trkpt lat="44.2463521" lon="8.2937059"><ele></ele><time>2014-8-28T16:19:4Z</time></trkpt>
<trkpt lat="44.2464962" lon="8.2936039"><ele></ele><time>2014-8-28T16:19:7Z</time></trkpt>
<trkpt lat="44.2465527" lon="8.2933816"><ele></ele><time>2014-8-28T16:19:10Z</time></trkpt>
<trkpt lat="44.2466484" lon="8.2934110"><ele></ele><time>2014-8-28T16:19:13Z</time></trkpt>
<trkpt lat="44.2467226" lon="8.2934852"><ele></ele><time>2014-8-28T16:19:16Z</time></trkpt>
<trkpt lat="44.2468723" lon="8.2935747"><ele></ele><time>2014-8-28T16:19:19Z</time></trkpt>
<trkpt lat="44.2470695" lon="8.2936691"><ele></ele><time>2014-8-28T16:19:22Z</time></trkpt>
<trkpt lat="44.2473038" lon="8.2934930"><ele></ele><time>2014-8-28T16:19:25Z</time></trkpt>
<trkpt lat="44.2475572" lon="8.2933768"><ele></ele><time>2014-8-28T16:19:28Z</time></trkpt>
<trkpt lat="44.2476627" lon="8.2933017"><ele></ele><time>2014-8-28T16:19:31Z</time></trkpt>
<trkpt lat="44.2477459" lon="8.2932936"><ele></ele><time>2014-8-28T16:19:34Z</time></trkpt>
<trkpt lat="44.2477709" lon="8.2932588"><ele></ele><time>2014-8-28T16:19:37Z</time></trkpt>
<trkpt lat="44.2476140" lon="8.2934329"><ele></ele><time>2014-8-28T16:19:40Z</time></trkpt>
<trkpt lat="44.2475778" lon="8.2935021"><ele></ele><time>2014-8-28T16:19:43Z</time></trkpt>
<trkpt lat="44.2472431" lon="8.2942405"><ele></ele><time>2014-8-28T16:19:46Z</time></trkpt>
<trkpt lat="44.2471585" lon="8.2945476"><ele></ele><time>2014-8-28T16:19:49Z</time></trkpt>
<trkpt lat="44.2469360" lon="8.2946640"><ele></ele><time>2014-8-28T16:19:52Z</time></trkpt>
<trkpt lat="44.2468800" lon="8.2947719"><ele></ele><time>2014-8-28T16:19:55Z</time></trkpt>
<trkpt lat="44.2466888" lon="8.2950872"><ele></ele><time>2014-8-28T16:19:58Z</time></trkpt>
<trkpt lat="44.2465040" lon="8.2952871"><ele></ele><time>2014-8-28T16:20:1Z</time></trkpt>
<trkpt lat="44.2464877" lon="8.2952966"><ele></ele><time>2014-8-28T16:20:4Z</time></trkpt>
<trkpt lat="44.2464509" lon="8.2953253"><ele></ele><time>2014-8-28T16:20:7Z</time></trkpt>
<trkpt lat="44.2463362" lon="8.2954079"><ele></ele><time>2014-8-28T16:20:10Z</time></trkpt>
<trkpt lat="44.2461999" lon="8.2954591"><ele></ele><time>2014-8-28T16:20:13Z</time></trkpt>
<trkpt lat="44.2461631" lon="8.2954879"><ele></ele><time>2014-8-28T16:20:16Z</time></trkpt>
<trkpt lat="44.2461406" lon="8.2955521"><ele></ele><time>2014-8-28T16:20:19Z</time></trkpt>
<trkpt lat="44.2462512" lon="8.2958043"><ele></ele><time>2014-8-28T16:20:22Z</time></trkpt>
<trkpt lat="44.2462629" lon="8.2958293"><ele></ele><time>2014-8-28T16:20:25Z</time></trkpt>
<trkpt lat="44.2463393" lon="8.2958162"><ele></ele><time>2014-8-28T16:20:28Z</time></trkpt>
<trkpt lat="44.2463504" lon="8.2957903"><ele></ele><time>2014-8-28T16:20:31Z</time></trkpt>
<trkpt lat="44.2463678" lon="8.2958344"><ele></ele><time>2014-8-28T16:20:34Z</time></trkpt>
<trkpt lat="44.2463789" lon="8.2958507"><ele></ele><time>2014-8-28T16:20:37Z</time></trkpt>
<trkpt lat="44.2463692" lon="8.2958204"><ele></ele><time>2014-8-28T16:20:40Z</time></trkpt>
<trkpt lat="44.2463522" lon="8.2958328"><ele></ele><time>2014-8-28T16:20:43Z</time></trkpt>
<trkpt lat="44.2463349" lon="8.2958090"><ele></ele><time>2014-8-28T16:20:46Z</time></trkpt>
<trkpt lat="44.2463406" lon="8.2957986"><ele></ele><time>2014-8-28T16:20:49Z</time></trkpt>
<trkpt lat="44.2462947" lon="8.2957941"><ele></ele><time>2014-8-28T16:20:52Z</time></trkpt>
<trkpt lat="44.2462536" lon="8.2958042"><ele></ele><time>2014-8-28T16:20:55Z</time></trkpt>
<trkpt lat="44.2462615" lon="8.2958224"><ele></ele><time>2014-8-28T16:20:58Z</time></trkpt>
<trkpt lat="44.2462719" lon="8.2958379"><ele></ele><time>2014-8-28T16:21:1Z</time></trkpt>
<trkpt lat="44.2461951" lon="8.2959429"><ele></ele><time>2014-8-28T16:21:4Z</time></trkpt>
<trkpt lat="44.2460274" lon="8.2959622"><ele></ele><time>2014-8-28T16:21:7Z</time></trkpt>
<trkpt lat="44.2458176" lon="8.2960820"><ele></ele><time>2014-8-28T16:21:10Z</time></trkpt>
<trkpt lat="44.2456694" lon="8.2963016"><ele></ele><time>2014-8-28T16:21:13Z</time></trkpt>
<trkpt lat="44.2454605" lon="8.2963550"><ele></ele><time>2014-8-28T16:21:16Z</time></trkpt>
<trkpt lat="44.2454079" lon="8.2963198"><ele></ele><time>2014-8-28T16:21:19Z</time></trkpt>
<trkpt lat="44.2451984" lon="8.2962229"><ele></ele><time>2014-8-28T16:21:22Z</time></trkpt>
<trkpt lat="44.2451457" lon="8.2962229"><ele></ele><time>2014-8-28T16:21:25Z</time></trkpt>
<trkpt lat="44.2446936" lon="8.2965212"><ele></ele><time>2014-8-28T16:21:28Z</time></trkpt>
<trkpt lat="44.2444673" lon="8.2965987"><ele></ele><time>2014-8-28T16:21:31Z</time></trkpt>
<trkpt lat="44.2442209" lon="8.2965522"><ele></ele><time>2014-8-28T16:21:34Z</time></trkpt>
<trkpt lat="44.2440439" lon="8.2964521"><ele></ele><time>2014-8-28T16:21:37Z</time></trkpt>
<trkpt lat="44.2439249" lon="8.2963984"><ele></ele><time>2014-8-28T16:21:40Z</time></trkpt>
<trkpt lat="44.2436462" lon="8.2962634"><ele></ele><time>2014-8-28T16:21:43Z</time></trkpt>
<trkpt lat="44.2434627" lon="8.2959776"><ele></ele><time>2014-8-28T16:21:46Z</time></trkpt>
<trkpt lat="44.2433748" lon="8.2958454"><ele></ele><time>2014-8-28T16:21:49Z</time></trkpt>
<trkpt lat="44.2432025" lon="8.2958970"><ele></ele><time>2014-8-28T16:21:52Z</time></trkpt>
<trkpt lat="44.2430514" lon="8.2960896"><ele></ele><time>2014-8-28T16:21:55Z</time></trkpt>
<trkpt lat="44.2430043" lon="8.2962471"><ele></ele><time>2014-8-28T16:21:58Z</time></trkpt>
<trkpt lat="44.2429582" lon="8.2963999"><ele></ele><time>2014-8-28T16:22:1Z</time></trkpt>
<trkpt lat="44.2428982" lon="8.2967093"><ele></ele><time>2014-8-28T16:22:4Z</time></trkpt>
<trkpt lat="44.2427029" lon="8.2969123"><ele></ele><time>2014-8-28T16:22:7Z</time></trkpt>
<trkpt lat="44.2425138" lon="8.2970808"><ele></ele><time>2014-8-28T16:22:10Z</time></trkpt>
<trkpt lat="44.2422940" lon="8.2973712"><ele></ele><time>2014-8-28T16:22:13Z</time></trkpt>
<trkpt lat="44.2421641" lon="8.2976926"><ele></ele><time>2014-8-28T16:22:16Z</time></trkpt>
<trkpt lat="44.2419765" lon="8.2979908"><ele></ele><time>2014-8-28T16:22:19Z</time></trkpt>
<trkpt lat="44.2418344" lon="8.2982036"><ele></ele><time>2014-8-28T16:22:22Z</time></trkpt>
<trkpt lat="44.2418344" lon="8.2982553"><ele></ele><time>2014-8-28T16:22:25Z</time></trkpt>
<trkpt lat="44.2416259" lon="8.2983244"><ele></ele><time>2014-8-28T16:22:28Z</time></trkpt>
<trkpt lat="44.2414444" lon="8.2983605"><ele></ele><time>2014-8-28T16:22:31Z</time></trkpt>
<trkpt lat="44.2413496" lon="8.2983690"><ele></ele><time>2014-8-28T16:22:34Z</time></trkpt>
<trkpt lat="44.2410830" lon="8.2983825"><ele></ele><time>2014-8-28T16:22:37Z</time></trkpt>
<trkpt lat="44.2408074" lon="8.2983815"><ele></ele><time>2014-8-28T16:22:40Z</time></trkpt>
<trkpt lat="44.2406528" lon="8.2983662"><ele></ele><time>2014-8-28T16:22:43Z</time></trkpt>
<trkpt lat="44.2406067" lon="8.2983203"><ele></ele><time>2014-8-28T16:22:46Z</time></trkpt>
<trkpt lat="44.2405003" lon="8.2980210"><ele></ele><time>2014-8-28T16:22:49Z</time></trkpt>
<trkpt lat="44.2404900" lon="8.2979633"><ele></ele><time>2014-8-28T16:22:52Z</time></trkpt>
<trkpt lat="44.2404671" lon="8.2979155"><ele></ele><time>2014-8-28T16:22:55Z</time></trkpt>
<trkpt lat="44.2404529" lon="8.2978886"><ele></ele><time>2014-8-28T16:22:58Z</time></trkpt>
<trkpt lat="44.2403653" lon="8.2977774"><ele></ele><time>2014-8-28T16:23:1Z</time></trkpt>
<trkpt lat="44.2400962" lon="8.2976576"><ele></ele><time>2014-8-28T16:23:4Z</time></trkpt>
<trkpt lat="44.2400606" lon="8.2975811"><ele></ele><time>2014-8-28T16:23:7Z</time></trkpt>
<trkpt lat="44.2399914" lon="8.2974889"><ele></ele><time>2014-8-28T16:23:10Z</time></trkpt>
<trkpt lat="44.2397288" lon="8.2973334"><ele></ele><time>2014-8-28T16:23:13Z</time></trkpt>
<trkpt lat="44.2395907" lon="8.2973739"><ele></ele><time>2014-8-28T16:23:16Z</time></trkpt>
<trkpt lat="44.2394818" lon="8.2976060"><ele></ele><time>2014-8-28T16:23:19Z</time></trkpt>
<trkpt lat="44.2392376" lon="8.2978961"><ele></ele><time>2014-8-28T16:23:22Z</time></trkpt>
<trkpt lat="44.2388349" lon="8.2977767"><ele></ele><time>2014-8-28T16:23:25Z</time></trkpt>
<trkpt lat="44.2386310" lon="8.2975536"><ele></ele><time>2014-8-28T16:23:28Z</time></trkpt>
<trkpt lat="44.2385283" lon="8.2975364"><ele></ele><time>2014-8-28T16:23:31Z</time></trkpt>
<trkpt lat="44.2385085" lon="8.2975111"><ele></ele><time>2014-8-28T16:23:34Z</time></trkpt>
<trkpt lat="44.2384425" lon="8.2976131"><ele></ele><time>2014-8-28T16:23:37Z</time></trkpt>
<trkpt lat="44.2384458" lon="8.2977137"><ele></ele><time>2014-8-28T16:23:40Z</time></trkpt>
<trkpt lat="44.2384376" lon="8.2979047"><ele></ele><time>2014-8-28T16:23:43Z</time></trkpt>
<trkpt lat="44.2384334" lon="8.2979919"><ele></ele><time>2014-8-28T16:23:46Z</time></trkpt>
<trkpt lat="44.2383097" lon="8.2983452"><ele></ele><time>2014-8-28T16:23:49Z</time></trkpt>
<trkpt lat="44.2383622" lon="8.2986864"><ele></ele><time>2014-8-28T16:23:52Z</time></trkpt>
<trkpt lat="44.2383651" lon="8.2988936"><ele></ele><time>2014-8-28T16:23:55Z</time></trkpt>
<trkpt lat="44.2383617" lon="8.2992743"><ele></ele><time>2014-8-28T16:23:58Z</time></trkpt>
<trkpt lat="44.2383567" lon="8.2994293"><ele></ele><time>2014-8-28T16:24:1Z</time></trkpt>
<trkpt lat="44.2383716" lon="8.2999882"><ele></ele><time>2014-8-28T16:24:4Z</time></trkpt>
<trkpt lat="44.2384835" lon="8.3004551"><ele></ele><time>2014-8-28T16:24:7Z</time></trkpt>
<trkpt lat="44.2387165" lon="8.3008387"><ele></ele><time>2014-8-28T16:24:10Z</time></trkpt>
<trkpt lat="44.2387380" lon="8.3010554"><ele></ele><time>2014-8-28T16:24:13Z</time></trkpt>
<trkpt lat="44.2385857" lon="8.3014085"><ele></ele><time>2014-8-28T16:24:16Z</time></trkpt>
<trkpt lat="44.2383721" lon="8.3016852"><ele></ele><time>2014-8-28T16:24:19Z</time></trkpt>
<trkpt lat="44.2381876" lon="8.3023218"><ele></ele><time>2014-8-28T16:24:22Z</time></trkpt>
<trkpt lat="44.2381929" lon="8.3023617"><ele></ele><time>2014-8-28T16:24:25Z</time></trkpt>
<trkpt lat="44.2379621" lon="8.3027403"><ele></ele><time>2014-8-28T16:24:28Z</time></trkpt>
<trkpt lat="44.2377071" lon="8.3029568"><ele></ele><time>2014-8-28T16:24:31Z</time></trkpt>
<trkpt lat="44.2376580" lon="8.3030184"><ele></ele><time>2014-8-28T16:24:34Z</time></trkpt>
<trkpt lat="44.2376507" lon="8.3029300"><ele></ele><time>2014-8-28T16:24:37Z</time></trkpt>
<trkpt lat="44.2375344" lon="8.3030612"><ele></ele><time>2014-8-28T16:24:40Z</time></trkpt>
<trkpt lat="44.2373800" lon="8.3032652"><ele></ele><time>2014-8-28T16:24:43Z</time></trkpt>
<trkpt lat="44.2373371" lon="8.3034066"><ele></ele><time>2014-8-28T16:24:46Z</time></trkpt>
<trkpt lat="44.2374083" lon="8.3039294"><ele></ele><time>2014-8-28T16:24:49Z</time></trkpt>
<trkpt lat="44.2373885" lon="8.3042128"><ele></ele><time>2014-8-28T16:24:52Z</time></trkpt>
<trkpt lat="44.2372326" lon="8.3042515"><ele></ele><time>2014-8-28T16:24:55Z</time></trkpt>
<trkpt lat="44.2371367" lon="8.3041733"><ele></ele><time>2014-8-28T16:24:58Z</time></trkpt>
<trkpt lat="44.2369683" lon="8.3040356"><ele></ele><time>2014-8-28T16:25:1Z</time></trkpt>
<trkpt lat="44.2367364" lon="8.3038807"><ele></ele><time>2014-8-28T16:25:4Z</time></trkpt>
<trkpt lat="44.2367445" lon="8.3038600"><ele></ele><time>2014-8-28T16:25:7Z</time></trkpt>
<trkpt lat="44.2366814" lon="8.3035487"><ele></ele><time>2014-8-28T16:25:10Z</time></trkpt>
<trkpt lat="44.2366253" lon="8.3033722"><ele></ele><time>2014-8-28T16:25:13Z</time></trkpt>
<trkpt lat="44.2365068" lon="8.3031123"><ele></ele><time>2014-8-28T16:25:16Z</time></trkpt>
<trkpt lat="44.2363286" lon="8.3027574"><ele></ele><time>2014-8-28T16:25:19Z</time></trkpt>
<trkpt lat="44.2362499" lon="8.3025843"><ele></ele><time>2014-8-28T16:25:22Z</time></trkpt>
<trkpt lat="44.2359360" lon="8.3018861"><ele></ele><time>2014-8-28T16:25:25Z</time></trkpt>
<trkpt lat="44.2358296" lon="8.3017550"><ele></ele><time>2014-8-28T16:25:28Z</time></trkpt>
<trkpt lat="44.2356963" lon="8.3016619"><ele></ele><time>2014-8-28T16:25:31Z</time></trkpt>
<trkpt lat="44.2357102" lon="8.3016661"><ele></ele><time>2014-8-28T16:25:34Z</time></trkpt>
<trkpt lat="44.2355610" lon="8.3014054"><ele></ele><time>2014-8-28T16:25:37Z</time></trkpt>
<trkpt lat="44.2355298" lon="8.3013439"><ele></ele><time>2014-8-28T16:25:40Z</time></trkpt>
<trkpt lat="44.2349113" lon="8.3007814"><ele></ele><time>2014-8-28T16:25:43Z</time></trkpt>
<trkpt lat="44.2347937" lon="8.3006429"><ele></ele><time>2014-8-28T16:25:46Z</time></trkpt>
<trkpt lat="44.2346821" lon="8.3005204"><ele></ele><time>2014-8-28T16:25:49Z</time></trkpt>
<trkpt lat="44.2343831" lon="8.3000591"><ele></ele><time>2014-8-28T16:25:52Z</time></trkpt>
<trkpt lat="44.2340280" lon="8.2997003"><ele></ele><time>2014-8-28T16:25:55Z</time></trkpt>
<trkpt lat="44.2339263" lon="8.2994640"><ele></ele><time>2014-8-28T16:25:58Z</time></trkpt>
<trkpt lat="44.2338474" lon="8.2992221"><ele></ele><time>2014-8-28T16:26:1Z</time></trkpt>
<trkpt lat="44.2337954" lon="8.2989807"><ele></ele><time>2014-8-28T16:26:4Z</time></trkpt>
<trkpt lat="44.2336330" lon="8.2987575"><ele></ele><time>2014-8-28T16:26:7Z</time></trkpt>
<trkpt lat="44.2335122" lon="8.2985332"><ele></ele><time>2014-8-28T16:26:10Z</time></trkpt>
<trkpt lat="44.2334644" lon="8.2984271"><ele></ele><time>2014-8-28T16:26:13Z</time></trkpt>
<trkpt lat="44.2334377" lon="8.2982693"><ele></ele><time>2014-8-28T16:26:16Z</time></trkpt>
<trkpt lat="44.2333734" lon="8.2981984"><ele></ele><time>2014-8-28T16:26:19Z</time></trkpt>
<trkpt lat="44.2331096" lon="8.2980028"><ele></ele><time>2014-8-28T16:26:22Z</time></trkpt>
<trkpt lat="44.2328958" lon="8.2979106"><ele></ele><time>2014-8-28T16:26:25Z</time></trkpt>
<trkpt lat="44.2328436" lon="8.2979358"><ele></ele><time>2014-8-28T16:26:28Z</time></trkpt>
<trkpt lat="44.2326389" lon="8.2981059"><ele></ele><time>2014-8-28T16:26:31Z</time></trkpt>
<trkpt lat="44.2324178" lon="8.2982887"><ele></ele><time>2014-8-28T16:26:34Z</time></trkpt>
<trkpt lat="44.2321903" lon="8.2984804"><ele></ele><time>2014-8-28T16:26:37Z</time></trkpt>
<trkpt lat="44.2319904" lon="8.2985794"><ele></ele><time>2014-8-28T16:26:40Z</time></trkpt>
<trkpt lat="44.2317589" lon="8.2987021"><ele></ele><time>2014-8-28T16:26:43Z</time></trkpt>
<trkpt lat="44.2315022" lon="8.2988210"><ele></ele><time>2014-8-28T16:26:46Z</time></trkpt>
<trkpt lat="44.2314064" lon="8.2988508"><ele></ele><time>2014-8-28T16:26:49Z</time></trkpt>
<trkpt lat="44.2313413" lon="8.2988528"><ele></ele><time>2014-8-28T16:26:52Z</time></trkpt>
<trkpt lat="44.2312310" lon="8.2988114"><ele></ele><time>2014-8-28T16:26:55Z</time></trkpt>
<trkpt lat="44.2307068" lon="8.2990114"><ele></ele><time>2014-8-28T16:26:58Z</time></trkpt>
<trkpt lat="44.2306466" lon="8.2990279"><ele></ele><time>2014-8-28T16:27:1Z</time></trkpt>
<trkpt lat="44.2305259" lon="8.2990554"><ele></ele><time>2014-8-28T16:27:4Z</time></trkpt>
<trkpt lat="44.2303316" lon="8.2991036"><ele></ele><time>2014-8-28T16:27:7Z</time></trkpt>
<trkpt lat="44.2300970" lon="8.2993362"><ele></ele><time>2014-8-28T16:27:10Z</time></trkpt>
<trkpt lat="44.2298759" lon="8.2996778"><ele></ele><time>2014-8-28T16:27:13Z</time></trkpt>
<trkpt lat="44.2296947" lon="8.2999389"><ele></ele><time>2014-8-28T16:27:16Z</time></trkpt>
<trkpt lat="44.2293905" lon="8.3003264"><ele></ele><time>2014-8-28T16:27:19Z</time></trkpt>
<trkpt lat="44.2290977" lon="8.3006646"><ele></ele><time>2014-8-28T16:27:22Z</time></trkpt>
<trkpt lat="44.2288756" lon="8.3009094"><ele></ele><time>2014-8-28T16:27:25Z</time></trkpt>
<trkpt lat="44.2286547" lon="8.3011692"><ele></ele><time>2014-8-28T16:27:28Z</time></trkpt>
<trkpt lat="44.2284685" lon="8.3013877"><ele></ele><time>2014-8-28T16:27:31Z</time></trkpt>
<trkpt lat="44.2282711" lon="8.3017336"><ele></ele><time>2014-8-28T16:27:34Z</time></trkpt>
<trkpt lat="44.2280579" lon="8.3024113"><ele></ele><time>2014-8-28T16:27:37Z</time></trkpt>
<trkpt lat="44.2279777" lon="8.3028752"><ele></ele><time>2014-8-28T16:27:40Z</time></trkpt>
<trkpt lat="44.2279622" lon="8.3029891"><ele></ele><time>2014-8-28T16:27:43Z</time></trkpt>
<trkpt lat="44.2277951" lon="8.3033760"><ele></ele><time>2014-8-28T16:27:46Z</time></trkpt>
<trkpt lat="44.2276275" lon="8.3040080"><ele></ele><time>2014-8-28T16:27:49Z</time></trkpt>
<trkpt lat="44.2275955" lon="8.3041436"><ele></ele><time>2014-8-28T16:27:52Z</time></trkpt>
<trkpt lat="44.2272416" lon="8.3045953"><ele></ele><time>2014-8-28T16:27:55Z</time></trkpt>
<trkpt lat="44.2268915" lon="8.3046773"><ele></ele><time>2014-8-28T16:27:58Z</time></trkpt>
<trkpt lat="44.2268015" lon="8.3046987"><ele></ele><time>2014-8-28T16:28:1Z</time></trkpt>
<trkpt lat="44.2265479" lon="8.3049730"><ele></ele><time>2014-8-28T16:28:4Z</time></trkpt>
<trkpt lat="44.2262439" lon="8.3053896"><ele></ele><time>2014-8-28T16:28:7Z</time></trkpt>
<trkpt lat="44.2261414" lon="8.3054308"><ele></ele><time>2014-8-28T16:28:10Z</time></trkpt>
<trkpt lat="44.2260408" lon="8.3055268"><ele></ele><time>2014-8-28T16:28:13Z</time></trkpt>
<trkpt lat="44.2260452" lon="8.3055133"><ele></ele><time>2014-8-28T16:28:16Z</time></trkpt>
<trkpt lat="44.2259954" lon="8.3055591"><ele></ele><time>2014-8-28T16:28:19Z</time></trkpt>
<trkpt lat="44.2258564" lon="8.3056805"><ele></ele><time>2014-8-28T16:28:22Z</time></trkpt>
<trkpt lat="44.2257098" lon="8.3060961"><ele></ele><time>2014-8-28T16:28:25Z</time></trkpt>
<trkpt lat="44.2256021" lon="8.3065566"><ele></ele><time>2014-8-28T16:28:28Z</time></trkpt>
<trkpt lat="44.2254360" lon="8.3070506"><ele></ele><time>2014-8-28T16:28:31Z</time></trkpt>
<trkpt lat="44.2254147" lon="8.3072874"><ele></ele><time>2014-8-28T16:28:34Z</time></trkpt>
<trkpt lat="44.2253478" lon="8.3075088"><ele></ele><time>2014-8-28T16:28:37Z</time></trkpt>
<trkpt lat="44.2251113" lon="8.3079030"><ele></ele><time>2014-8-28T16:28:40Z</time></trkpt>
<trkpt lat="44.2250510" lon="8.3079811"><ele></ele><time>2014-8-28T16:28:43Z</time></trkpt>
<trkpt lat="44.2249926" lon="8.3080294"><ele></ele><time>2014-8-28T16:28:46Z</time></trkpt>
<trkpt lat="44.2248936" lon="8.3081662"><ele></ele><time>2014-8-28T16:28:49Z</time></trkpt>
<trkpt lat="44.2247186" lon="8.3082882"><ele></ele><time>2014-8-28T16:28:52Z</time></trkpt>
<trkpt lat="44.2246168" lon="8.3082899"><ele></ele><time>2014-8-28T16:28:55Z</time></trkpt>
<trkpt lat="44.2244498" lon="8.3084202"><ele></ele><time>2014-8-28T16:28:58Z</time></trkpt>
<trkpt lat="44.2242782" lon="8.3086970"><ele></ele><time>2014-8-28T16:29:1Z</time></trkpt>
<trkpt lat="44.2242347" lon="8.3087572"><ele></ele><time>2014-8-28T16:29:4Z</time></trkpt>
<trkpt lat="44.2241776" lon="8.3088336"><ele></ele><time>2014-8-28T16:29:7Z</time></trkpt>
<trkpt lat="44.2240789" lon="8.3089841"><ele></ele><time>2014-8-28T16:29:10Z</time></trkpt>
<trkpt lat="44.2240051" lon="8.3091406"><ele></ele><time>2014-8-28T16:29:13Z</time></trkpt>
<trkpt lat="44.2239389" lon="8.3092820"><ele></ele><time>2014-8-28T16:29:16Z</time></trkpt>
<trkpt lat="44.2238509" lon="8.3096293"><ele></ele><time>2014-8-28T16:29:19Z</time></trkpt>
<trkpt lat="44.2238172" lon="8.3096617"><ele></ele><time>2014-8-28T16:29:22Z</time></trkpt>
<trkpt lat="44.2237473" lon="8.3097210"><ele></ele><time>2014-8-28T16:29:25Z</time></trkpt>
<trkpt lat="44.2236909" lon="8.3097699"><ele></ele><time>2014-8-28T16:29:28Z</time></trkpt>
<trkpt lat="44.2234913" lon="8.3098822"><ele></ele><time>2014-8-28T16:29:31Z</time></trkpt>
<trkpt lat="44.2234581" lon="8.3099065"><ele></ele><time>2014-8-28T16:29:34Z</time></trkpt>
<trkpt lat="44.2232496" lon="8.3100471"><ele></ele><time>2014-8-28T16:29:37Z</time></trkpt>
<trkpt lat="44.2231272" lon="8.3101132"><ele></ele><time>2014-8-28T16:29:40Z</time></trkpt>
<trkpt lat="44.2231405" lon="8.3100786"><ele></ele><time>2014-8-28T16:29:43Z</time></trkpt>
<trkpt lat="44.2231082" lon="8.3101219"><ele></ele><time>2014-8-28T16:29:46Z</time></trkpt>
<trkpt lat="44.2231169" lon="8.3101562"><ele></ele><time>2014-8-28T16:29:49Z</time></trkpt>
<trkpt lat="44.2230014" lon="8.3102364"><ele></ele><time>2014-8-28T16:29:52Z</time></trkpt>
<trkpt lat="44.2227553" lon="8.3103473"><ele></ele><time>2014-8-28T16:29:55Z</time></trkpt>
<trkpt lat="44.2227536" lon="8.3103557"><ele></ele><time>2014-8-28T16:29:58Z</time></trkpt>
<trkpt lat="44.2227496" lon="8.3103666"><ele></ele><time>2014-8-28T16:30:1Z</time></trkpt>
<trkpt lat="44.2227744" lon="8.3104734"><ele></ele><time>2014-8-28T16:30:4Z</time></trkpt>
<trkpt lat="44.2227958" lon="8.3105047"><ele></ele><time>2014-8-28T16:30:7Z</time></trkpt>
<trkpt lat="44.2230134" lon="8.3104671"><ele></ele><time>2014-8-28T16:30:10Z</time></trkpt>
<trkpt lat="44.2232189" lon="8.3104293"><ele></ele><time>2014-8-28T16:30:13Z</time></trkpt>
<trkpt lat="44.2233241" lon="8.3104489"><ele></ele><time>2014-8-28T16:30:16Z</time></trkpt>
<trkpt lat="44.2234485" lon="8.3104578"><ele></ele><time>2014-8-28T16:30:19Z</time></trkpt>
<trkpt lat="44.2237343" lon="8.3105920"><ele></ele><time>2014-8-28T16:30:22Z</time></trkpt>
<trkpt lat="44.2238421" lon="8.3106634"><ele></ele><time>2014-8-28T16:30:25Z</time></trkpt>
<trkpt lat="44.2239611" lon="8.3107195"><ele></ele><time>2014-8-28T16:30:28Z</time></trkpt>
<trkpt lat="44.2242077" lon="8.3108027"><ele></ele><time>2014-8-28T16:30:31Z</time></trkpt>
<trkpt lat="44.2244983" lon="8.3107001"><ele></ele><time>2014-8-28T16:30:34Z</time></trkpt>
<trkpt lat="44.2246196" lon="8.3106614"><ele></ele><time>2014-8-28T16:30:37Z</time></trkpt>
<trkpt lat="44.2248081" lon="8.3106203"><ele></ele><time>2014-8-28T16:30:40Z</time></trkpt>
<trkpt lat="44.2248915" lon="8.3106223"><ele></ele><time>2014-8-28T16:30:43Z</time></trkpt>
<trkpt lat="44.2250532" lon="8.3107121"><ele></ele><time>2014-8-28T16:30:46Z</time></trkpt>
<trkpt lat="44.2251079" lon="8.3107422"><ele></ele><time>2014-8-28T16:30:49Z</time></trkpt>
<trkpt lat="44.2253272" lon="8.3106746"><ele></ele><time>2014-8-28T16:30:52Z</time></trkpt>
<trkpt lat="44.2255225" lon="8.3108259"><ele></ele><time>2014-8-28T16:30:55Z</time></trkpt>
<trkpt lat="44.2256608" lon="8.3109779"><ele></ele><time>2014-8-28T16:30:58Z</time></trkpt>
<trkpt lat="44.2257733" lon="8.3110894"><ele></ele><time>2014-8-28T16:31:1Z</time></trkpt>
<trkpt lat="44.2259010" lon="8.3113046"><ele></ele><time>2014-8-28T16:31:4Z</time></trkpt>
<trkpt lat="44.2259005" lon="8.3113664"><ele></ele><time>2014-8-28T16:31:7Z</time></trkpt>
<trkpt lat="44.2259245" lon="8.3115487"><ele></ele><time>2014-8-28T16:31:10Z</time></trkpt>
<trkpt lat="44.2258994" lon="8.3116117"><ele></ele><time>2014-8-28T16:31:13Z</time></trkpt>
<trkpt lat="44.2259421" lon="8.3118445"><ele></ele><time>2014-8-28T16:31:16Z</time></trkpt>
<trkpt lat="44.2259896" lon="8.3121137"><ele></ele><time>2014-8-28T16:31:19Z</time></trkpt>
<trkpt lat="44.2260361" lon="8.3122655"><ele></ele><time>2014-8-28T16:31:22Z</time></trkpt>
<trkpt lat="44.2260927" lon="8.3124023"><ele></ele><time>2014-8-28T16:31:25Z</time></trkpt>
<trkpt lat="44.2261508" lon="8.3126925"><ele></ele><time>2014-8-28T16:31:28Z</time></trkpt>
<trkpt lat="44.2260944" lon="8.3127262"><ele></ele><time>2014-8-28T16:31:31Z</time></trkpt>
<trkpt lat="44.2259814" lon="8.3127529"><ele></ele><time>2014-8-28T16:31:34Z</time></trkpt>
<trkpt lat="44.2259453" lon="8.3127734"><ele></ele><time>2014-8-28T16:31:37Z</time></trkpt>
<trkpt lat="44.2257701" lon="8.3127935"><ele></ele><time>2014-8-28T16:31:40Z</time></trkpt>
<trkpt lat="44.2257938" lon="8.3128572"><ele></ele><time>2014-8-28T16:31:43Z</time></trkpt>
<trkpt lat="44.2258830" lon="8.3130209"><ele></ele><time>2014-8-28T16:31:46Z</time></trkpt>
<trkpt lat="44.2259285" lon="8.3131343"><ele></ele><time>2014-8-28T16:31:49Z</time></trkpt>
<trkpt lat="44.2259510" lon="8.3131964"><ele></ele><time>2014-8-28T16:31:52Z</time></trkpt>
<trkpt lat="44.2259555" lon="8.3132406"><ele></ele><time>2014-8-28T16:31:55Z</time></trkpt>
<trkpt lat="44.2258214" lon="8.3132327"><ele></ele><time>2014-8-28T16:31:58Z</time></trkpt>
<trkpt lat="44.2257117" lon="8.3131908"><ele></ele><time>2014-8-28T16:32:1Z</time></trkpt>
<trkpt lat="44.2256694" lon="8.3132141"><ele></ele><time>2014-8-28T16:32:4Z</time></trkpt>
<trkpt lat="44.2257074" lon="8.3133327"><ele></ele><time>2014-8-28T16:32:7Z</time></trkpt>
<trkpt lat="44.2257417" lon="8.3133531"><ele></ele><time>2014-8-28T16:32:10Z</time></trkpt>
<trkpt lat="44.2256748" lon="8.3133408"><ele></ele><time>2014-8-28T16:32:13Z</time></trkpt>
<trkpt lat="44.2255990" lon="8.3133078"><ele></ele><time>2014-8-28T16:32:16Z</time></trkpt>
<trkpt lat="44.2255270" lon="8.3132921"><ele></ele><time>2014-8-28T16:32:19Z</time></trkpt>
<trkpt lat="44.2254749" lon="8.3132952"><ele></ele><time>2014-8-28T16:32:22Z</time></trkpt>
<trkpt lat="44.2253412" lon="8.3131463"><ele></ele><time>2014-8-28T16:32:25Z</time></trkpt>
<trkpt lat="44.2252262" lon="8.3129223"><ele></ele><time>2014-8-28T16:32:28Z</time></trkpt>
<trkpt lat="44.2252032" lon="8.3128607"><ele></ele><time>2014-8-28T16:32:31Z</time></trkpt>
<trkpt lat="44.2251739" lon="8.3128292"><ele></ele><time>2014-8-28T16:32:34Z</time></trkpt>
<trkpt lat="44.2250823" lon="8.3128991"><ele></ele><time>2014-8-28T16:32:37Z</time></trkpt>
<trkpt lat="44.2250862" lon="8.3129924"><ele></ele><time>2014-8-28T16:32:40Z</time></trkpt>
<trkpt lat="44.2251641" lon="8.3132230"><ele></ele><time>2014-8-28T16:32:43Z</time></trkpt>
<trkpt lat="44.2252030" lon="8.3133841"><ele></ele><time>2014-8-28T16:32:46Z</time></trkpt>
<trkpt lat="44.2251320" lon="8.3135156"><ele></ele><time>2014-8-28T16:32:49Z</time></trkpt>
<trkpt lat="44.2251665" lon="8.3137046"><ele></ele><time>2014-8-28T16:32:52Z</time></trkpt>
<trkpt lat="44.2252490" lon="8.3140019"><ele></ele><time>2014-8-28T16:32:55Z</time></trkpt>
<trkpt lat="44.2255042" lon="8.3142071"><ele></ele><time>2014-8-28T16:32:58Z</time></trkpt>
<trkpt lat="44.2255738" lon="8.3142771"><ele></ele><time>2014-8-28T16:33:1Z</time></trkpt>
<trkpt lat="44.2257747" lon="8.3145180"><ele></ele><time>2014-8-28T16:33:4Z</time></trkpt>
<trkpt lat="44.2260078" lon="8.3149708"><ele></ele><time>2014-8-28T16:33:7Z</time></trkpt>
<trkpt lat="44.2260389" lon="8.3150211"><ele></ele><time>2014-8-28T16:33:10Z</time></trkpt>
<trkpt lat="44.2260821" lon="8.3151421"><ele></ele><time>2014-8-28T16:33:13Z</time></trkpt>
<trkpt lat="44.2263363" lon="8.3155714"><ele></ele><time>2014-8-28T16:33:16Z</time></trkpt>
<trkpt lat="44.2262348" lon="8.3158019"><ele></ele><time>2014-8-28T16:33:19Z</time></trkpt>
<trkpt lat="44.2262514" lon="8.3157907"><ele></ele><time>2014-8-28T16:33:22Z</time></trkpt>
<trkpt lat="44.2262848" lon="8.3157508"><ele></ele><time>2014-8-28T16:33:25Z</time></trkpt>
<trkpt lat="44.2262897" lon="8.3157326"><ele></ele><time>2014-8-28T16:33:28Z</time></trkpt>
<trkpt lat="44.2262177" lon="8.3156823"><ele></ele><time>2014-8-28T16:33:31Z</time></trkpt>
<trkpt lat="44.2261435" lon="8.3156015"><ele></ele><time>2014-8-28T16:33:34Z</time></trkpt>
<trkpt lat="44.2261006" lon="8.3155522"><ele></ele><time>2014-8-28T16:33:37Z</time></trkpt>
<trkpt lat="44.2260021" lon="8.3155072"><ele></ele><time>2014-8-28T16:33:40Z</time></trkpt>
<trkpt lat="44.2258978" lon="8.3155027"><ele></ele><time>2014-8-28T16:33:43Z</time></trkpt>
<trkpt lat="44.2256635" lon="8.3153903"><ele></ele><time>2014-8-28T16:33:46Z</time></trkpt>
<trkpt lat="44.2254862" lon="8.3153037"><ele></ele><time>2014-8-28T16:33:49Z</time></trkpt>
<trkpt lat="44.2252474" lon="8.3151415"><ele></ele><time>2014-8-28T16:33:52Z</time></trkpt>
<trkpt lat="44.2251094" lon="8.3149407"><ele></ele><time>2014-8-28T16:33:55Z</time></trkpt>
<trkpt lat="44.2250449" lon="8.3149110"><ele></ele><time>2014-8-28T16:33:58Z</time></trkpt>
<trkpt lat="44.2250219" lon="8.3147017"><ele></ele><time>2014-8-28T16:34:1Z</time></trkpt>
<trkpt lat="44.2250020" lon="8.3146375"><ele></ele><time>2014-8-28T16:34:4Z</time></trkpt>
<trkpt lat="44.2249751" lon="8.3145096"><ele></ele><time>2014-8-28T16:34:7Z</time></trkpt>
<trkpt lat="44.2248438" lon="8.3144901"><ele></ele><time>2014-8-28T16:34:10Z</time></trkpt>
<trkpt lat="44.2247797" lon="8.3144584"><ele></ele><time>2014-8-28T16:34:13Z</time></trkpt>
<trkpt lat="44.2246041" lon="8.3143632"><ele></ele><time>2014-8-28T16:34:16Z</time></trkpt>
<trkpt lat="44.2243448" lon="8.3142184"><ele></ele><time>2014-8-28T16:34:19Z</time></trkpt>
<trkpt lat="44.2242876" lon="8.3140832"><ele></ele><time>2014-8-28T16:34:22Z</time></trkpt>
<trkpt lat="44.2242838" lon="8.3140849"><ele></ele><time>2014-8-28T16:34:25Z</time></trkpt>
<trkpt lat="44.2242255" lon="8.3141178"><ele></ele><time>2014-8-28T16:34:28Z</time></trkpt>
<trkpt lat="44.2241865" lon="8.3142422"><ele></ele><time>2014-8-28T16:34:31Z</time></trkpt>
<trkpt lat="44.2241677" lon="8.3143760"><ele></ele><time>2014-8-28T16:34:34Z</time></trkpt>
<trkpt lat="44.2241124" lon="8.3144677"><ele></ele><time>2014-8-28T16:34:37Z</time></trkpt>
<trkpt lat="44.2241141" lon="8.3146028"><ele></ele><time>2014-8-28T16:34:40Z</time></trkpt>
<trkpt lat="44.2241631" lon="8.3146841"><ele></ele><time>2014-8-28T16:34:43Z</time></trkpt>
<trkpt lat="44.2241549" lon="8.3147931"><ele></ele><time>2014-8-28T16:34:46Z</time></trkpt>
<trkpt lat="44.2241103" lon="8.3148292"><ele></ele><time>2014-8-28T16:34:49Z</time></trkpt>
<trkpt lat="44.2240704" lon="8.3149615"><ele></ele><time>2014-8-28T16:34:52Z</time></trkpt>
<trkpt lat="44.2240408" lon="8.3150893"><ele></ele><time>2014-8-28T16:34:55Z</time></trkpt>
<trkpt lat="44.2240299" lon="8.3152052"><ele></ele><time>2014-8-28T16:34:58Z</time></trkpt>
<trkpt lat="44.2239830" lon="8.3153671"><ele></ele><time>2014-8-28T16:35:1Z</time></trkpt>
<trkpt lat="44.2239385" lon="8.3154259"><ele></ele><time>2014-8-28T16:35:4Z</time></trkpt>
<trkpt lat="44.2238908" lon="8.3154833"><ele></ele><time>2014-8-28T16:35:7Z</time></trkpt>
<trkpt lat="44.2238387" lon="8.3155621"><ele></ele><time>2014-8-28T16:35:10Z</time></trkpt>
<trkpt lat="44.2238000" lon="8.3156323"><ele></ele><time>2014-8-28T16:35:13Z</time></trkpt>
<trkpt lat="44.2237958" lon="8.3157810"><ele></ele><time>2014-8-28T16:35:16Z</time></trkpt>
<trkpt lat="44.2238108" lon="8.3159656"><ele></ele><time>2014-8-28T16:35:19Z</time></trkpt>
<trkpt lat="44.2237983" lon="8.3161151"><ele></ele><time>2014-8-28T16:35:22Z</time></trkpt>
<trkpt lat="44.2238131" lon="8.3162622"><ele></ele><time>2014-8-28T16:35:25Z</time></trkpt>
<trkpt lat="44.2238196" lon="8.3163237"><ele></ele><time>2014-8-28T16:35:28Z</time></trkpt>
<trkpt lat="44.2238011" lon="8.3165615"><ele></ele><time>2014-8-28T16:35:31Z</time></trkpt>
<trkpt lat="44.2237727" lon="8.3167138"><ele></ele><time>2014-8-28T16:35:34Z</time></trkpt>
<trkpt lat="44.2237134" lon="8.3168486"><ele></ele><time>2014-8-28T16:35:37Z</time></trkpt>
<trkpt lat="44.2236877" lon="8.3169889"><ele></ele><time>2014-8-28T16:35:40Z</time></trkpt>
<trkpt lat="44.2236862" lon="8.3169828"><ele></ele><time>2014-8-28T16:35:43Z</time></trkpt>
<trkpt lat="44.2234656" lon="8.3171446"><ele></ele><time>2014-8-28T16:35:46Z</time></trkpt>
<trkpt lat="44.2233981" lon="8.3171676"><ele></ele><time>2014-8-28T16:35:49Z</time></trkpt>
<trkpt lat="44.2232282" lon="8.3171582"><ele></ele><time>2014-8-28T16:35:52Z</time></trkpt>
<trkpt lat="44.2228776" lon="8.3168318"><ele></ele><time>2014-8-28T16:35:55Z</time></trkpt>
<trkpt lat="44.2226841" lon="8.3166071"><ele></ele><time>2014-8-28T16:35:58Z</time></trkpt>
<trkpt lat="44.2225082" lon="8.3164863"><ele></ele><time>2014-8-28T16:36:1Z</time></trkpt>
<trkpt lat="44.2223777" lon="8.3164803"><ele></ele><time>2014-8-28T16:36:4Z</time></trkpt>
<trkpt lat="44.2222376" lon="8.3164321"><ele></ele><time>2014-8-28T16:36:7Z</time></trkpt>
<trkpt lat="44.2221952" lon="8.3164330"><ele></ele><time>2014-8-28T16:36:10Z</time></trkpt>
<trkpt lat="44.2221036" lon="8.3164435"><ele></ele><time>2014-8-28T16:36:13Z</time></trkpt>
<trkpt lat="44.2220156" lon="8.3164304"><ele></ele><time>2014-8-28T16:36:16Z</time></trkpt>
<trkpt lat="44.2219496" lon="8.3165381"><ele></ele><time>2014-8-28T16:36:19Z</time></trkpt>
<trkpt lat="44.2219136" lon="8.3166447"><ele></ele><time>2014-8-28T16:36:22Z</time></trkpt>
<trkpt lat="44.2217768" lon="8.3168661"><ele></ele><time>2014-8-28T16:36:25Z</time></trkpt>
<trkpt lat="44.2216220" lon="8.3169189"><ele></ele><time>2014-8-28T16:36:28Z</time></trkpt>
<trkpt lat="44.2215904" lon="8.3169489"><ele></ele><time>2014-8-28T16:36:31Z</time></trkpt>
<trkpt lat="44.2215409" lon="8.3169863"><ele></ele><time>2014-8-28T16:36:34Z</time></trkpt>
<trkpt lat="44.2215343" lon="8.3169924"><ele></ele><time>2014-8-28T16:36:37Z</time></trkpt>
<trkpt lat="44.2214753" lon="8.3170866"><ele></ele><time>2014-8-28T16:36:40Z</time></trkpt>
<trkpt lat="44.2214526" lon="8.3171820"><ele></ele><time>2014-8-28T16:36:43Z</time></trkpt>
<trkpt lat="44.2214489" lon="8.3172767"><ele></ele><time>2014-8-28T16:36:46Z</time></trkpt>
<trkpt lat="44.2214617" lon="8.3173679"><ele></ele><time>2014-8-28T16:36:49Z</time></trkpt>
<trkpt lat="44.2214099" lon="8.3175301"><ele></ele><time>2014-8-28T16:36:52Z</time></trkpt>
<trkpt lat="44.2214134" lon="8.3175596"><ele></ele><time>2014-8-28T16:36:55Z</time></trkpt>
<trkpt lat="44.2214219" lon="8.3175642"><ele></ele><time>2014-8-28T16:36:58Z</time></trkpt>
<trkpt lat="44.2214541" lon="8.3175554"><ele></ele><time>2014-8-28T16:37:1Z</time></trkpt>
<trkpt lat="44.2215329" lon="8.3176373"><ele></ele><time>2014-8-28T16:37:4Z</time></trkpt>
<trkpt lat="44.2215530" lon="8.3177903"><ele></ele><time>2014-8-28T16:37:7Z</time></trkpt>
<trkpt lat="44.2215754" lon="8.3178818"><ele></ele><time>2014-8-28T16:37:10Z</time></trkpt>
<trkpt lat="44.2216348" lon="8.3181192"><ele></ele><time>2014-8-28T16:37:13Z</time></trkpt>
<trkpt lat="44.2216841" lon="8.3182331"><ele></ele><time>2014-8-28T16:37:16Z</time></trkpt>
<trkpt lat="44.2217212" lon="8.3183063"><ele></ele><time>2014-8-28T16:37:19Z</time></trkpt>
<trkpt lat="44.2217188" lon="8.3183857"><ele></ele><time>2014-8-28T16:37:22Z</time></trkpt>
<trkpt lat="44.2216379" lon="8.3185304"><ele></ele><time>2014-8-28T16:37:25Z</time></trkpt>
<trkpt lat="44.2215909" lon="8.3185859"><ele></ele><time>2014-8-28T16:37:28Z</time></trkpt>
<trkpt lat="44.2215514" lon="8.3186340"><ele></ele><time>2014-8-28T16:37:31Z</time></trkpt>
<trkpt lat="44.2213681" lon="8.3189514"><ele></ele><time>2014-8-28T16:37:34Z</time></trkpt>
<trkpt lat="44.2212303" lon="8.3190703"><ele></ele><time>2014-8-28T16:37:37Z</time></trkpt>
<trkpt lat="44.2212311" lon="8.3190790"><ele></ele><time>2014-8-28T16:37:40Z</time></trkpt>
<trkpt lat="44.2211831" lon="8.3192061"><ele></ele><time>2014-8-28T16:37:43Z</time></trkpt>
<trkpt lat="44.2211945" lon="8.3193018"><ele></ele><time>2014-8-28T16:37:46Z</time></trkpt>
<trkpt lat="44.2211997" lon="8.3196033"><ele></ele><time>2014-8-28T16:37:49Z</time></trkpt>
<trkpt lat="44.2212888" lon="8.3200669"><ele></ele><time>2014-8-28T16:37:52Z</time></trkpt>
<trkpt lat="44.2212751" lon="8.3201731"><ele></ele><time>2014-8-28T16:37:55Z</time></trkpt>
<trkpt lat="44.2211490" lon="8.3200680"><ele></ele><time>2014-8-28T16:37:58Z</time></trkpt>
<trkpt lat="44.2208936" lon="8.3195111"><ele></ele><time>2014-8-28T16:38:1Z</time></trkpt>
<trkpt lat="44.2206502" lon="8.3196070"><ele></ele><time>2014-8-28T16:38:4Z</time></trkpt>
<trkpt lat="44.2204973" lon="8.3197642"><ele></ele><time>2014-8-28T16:38:7Z</time></trkpt>
<trkpt lat="44.2204222" lon="8.3199156"><ele></ele><time>2014-8-28T16:38:10Z</time></trkpt>
<trkpt lat="44.2203963" lon="8.3199736"><ele></ele><time>2014-8-28T16:38:13Z</time></trkpt>
<trkpt lat="44.2203898" lon="8.3200332"><ele></ele><time>2014-8-28T16:38:16Z</time></trkpt>
<trkpt lat="44.2204092" lon="8.3200803"><ele></ele><time>2014-8-28T16:38:19Z</time></trkpt>
<trkpt lat="44.2204474" lon="8.3201591"><ele></ele><time>2014-8-28T16:38:22Z</time></trkpt>
<trkpt lat="44.2204573" lon="8.3202306"><ele></ele><time>2014-8-28T16:38:25Z</time></trkpt>
<trkpt lat="44.2204826" lon="8.3202353"><ele></ele><time>2014-8-28T16:38:28Z</time></trkpt>
<trkpt lat="44.2204703" lon="8.3202785"><ele></ele><time>2014-8-28T16:38:31Z</time></trkpt>
<trkpt lat="44.2205263" lon="8.3203627"><ele></ele><time>2014-8-28T16:38:34Z</time></trkpt>
<trkpt lat="44.2205383" lon="8.3203772"><ele></ele><time>2014-8-28T16:38:37Z</time></trkpt>
<trkpt lat="44.2205709" lon="8.3204570"><ele></ele><time>2014-8-28T16:38:40Z</time></trkpt>
<trkpt lat="44.2204181" lon="8.3205847"><ele></ele><time>2014-8-28T16:38:43Z</time></trkpt>
<trkpt lat="44.2201854" lon="8.3205502"><ele></ele><time>2014-8-28T16:38:46Z</time></trkpt>
<trkpt lat="44.2200053" lon="8.3206085"><ele></ele><time>2014-8-28T16:38:49Z</time></trkpt>
<trkpt lat="44.2199596" lon="8.3206047"><ele></ele><time>2014-8-28T16:38:52Z</time></trkpt>
<trkpt lat="44.2198306" lon="8.3206433"><ele></ele><time>2014-8-28T16:38:55Z</time></trkpt>
<trkpt lat="44.2196716" lon="8.3207734"><ele></ele><time>2014-8-28T16:38:58Z</time></trkpt>
<trkpt lat="44.2196032" lon="8.3208437"><ele></ele><time>2014-8-28T16:39:1Z</time></trkpt>
<trkpt lat="44.2195919" lon="8.3208842"><ele></ele><time>2014-8-28T16:39:4Z</time></trkpt>
<trkpt lat="44.2196136" lon="8.3209009"><ele></ele><time>2014-8-28T16:39:7Z</time></trkpt>
<trkpt lat="44.2196130" lon="8.3210603"><ele></ele><time>2014-8-28T16:39:10Z</time></trkpt>
<trkpt lat="44.2194913" lon="8.3210098"><ele></ele><time>2014-8-28T16:39:13Z</time></trkpt>
<trkpt lat="44.2193647" lon="8.3210422"><ele></ele><time>2014-8-28T16:39:16Z</time></trkpt>
<trkpt lat="44.2194232" lon="8.3211933"><ele></ele><time>2014-8-28T16:39:19Z</time></trkpt>
<trkpt lat="44.2197574" lon="8.3212868"><ele></ele><time>2014-8-28T16:39:22Z</time></trkpt>
<trkpt lat="44.2199818" lon="8.3212556"><ele></ele><time>2014-8-28T16:39:25Z</time></trkpt>
<trkpt lat="44.2201533" lon="8.3213014"><ele></ele><time>2014-8-28T16:39:28Z</time></trkpt>
<trkpt lat="44.2201003" lon="8.3213452"><ele></ele><time>2014-8-28T16:39:31Z</time></trkpt>
<trkpt lat="44.2199637" lon="8.3213816"><ele></ele><time>2014-8-28T16:39:34Z</time></trkpt>
<trkpt lat="44.2197368" lon="8.3214949"><ele></ele><time>2014-8-28T16:39:37Z</time></trkpt>
<trkpt lat="44.2194924" lon="8.3216130"><ele></ele><time>2014-8-28T16:39:40Z</time></trkpt>
<trkpt lat="44.2191228" lon="8.3215877"><ele></ele><time>2014-8-28T16:39:43Z</time></trkpt>
<trkpt lat="44.2189168" lon="8.3218756"><ele></ele><time>2014-8-28T16:39:46Z</time></trkpt>
<trkpt lat="44.2191665" lon="8.3220098"><ele></ele><time>2014-8-28T16:39:49Z</time></trkpt>
<trkpt lat="44.2195691" lon="8.3219636"><ele></ele><time>2014-8-28T16:39:52Z</time></trkpt>
<trkpt lat="44.2196367" lon="8.3220727"><ele></ele><time>2014-8-28T16:39:55Z</time></trkpt>
<trkpt lat="44.2195933" lon="8.3220938"><ele></ele><time>2014-8-28T16:39:58Z</time></trkpt>
<trkpt lat="44.2195367" lon="8.3221035"><ele></ele><time>2014-8-28T16:40:1Z</time></trkpt>
<trkpt lat="44.2193193" lon="8.3221379"><ele></ele><time>2014-8-28T16:40:4Z</time></trkpt>
<trkpt lat="44.2190700" lon="8.3222694"><ele></ele><time>2014-8-28T16:40:7Z</time></trkpt>
<trkpt lat="44.2189001" lon="8.3223528"><ele></ele><time>2014-8-28T16:40:10Z</time></trkpt>
<trkpt lat="44.2184951" lon="8.3223171"><ele></ele><time>2014-8-28T16:40:13Z</time></trkpt>
<trkpt lat="44.2183425" lon="8.3222363"><ele></ele><time>2014-8-28T16:40:16Z</time></trkpt>
<trkpt lat="44.2184364" lon="8.3224741"><ele></ele><time>2014-8-28T16:40:19Z</time></trkpt>
<trkpt lat="44.2187097" lon="8.3225208"><ele></ele><time>2014-8-28T16:40:22Z</time></trkpt>
<trkpt lat="44.2186548" lon="8.3226729"><ele></ele><time>2014-8-28T16:40:25Z</time></trkpt>
<trkpt lat="44.2185253" lon="8.3227657"><ele></ele><time>2014-8-28T16:40:28Z</time></trkpt>
<trkpt lat="44.2183261" lon="8.3231180"><ele></ele><time>2014-8-28T16:40:31Z</time></trkpt>
<trkpt lat="44.2183097" lon="8.3232502"><ele></ele><time>2014-8-28T16:40:34Z</time></trkpt>
<trkpt lat="44.2183439" lon="8.3234697"><ele></ele><time>2014-8-28T16:40:37Z</time></trkpt>
<trkpt lat="44.2184075" lon="8.3239279"><ele></ele><time>2014-8-28T16:40:40Z</time></trkpt>
<trkpt lat="44.2184946" lon="8.3244512"><ele></ele><time>2014-8-28T16:40:43Z</time></trkpt>
<trkpt lat="44.2185100" lon="8.3245492"><ele></ele><time>2014-8-28T16:40:46Z</time></trkpt>
<trkpt lat="44.2185335" lon="8.3247427"><ele></ele><time>2014-8-28T16:40:49Z</time></trkpt>
<trkpt lat="44.2185764" lon="8.3253273"><ele></ele><time>2014-8-28T16:40:52Z</time></trkpt>
<trkpt lat="44.2185812" lon="8.3255512"><ele></ele><time>2014-8-28T16:40:55Z</time></trkpt>
<trkpt lat="44.2185431" lon="8.3255858"><ele></ele><time>2014-8-28T16:40:58Z</time></trkpt>
<trkpt lat="44.2186075" lon="8.3255054"><ele></ele><time>2014-8-28T16:41:1Z</time></trkpt>
<trkpt lat="44.2186141" lon="8.3255019"><ele></ele><time>2014-8-28T16:41:4Z</time></trkpt>
<trkpt lat="44.2186050" lon="8.3254755"><ele></ele><time>2014-8-28T16:41:7Z</time></trkpt>
<trkpt lat="44.2185786" lon="8.3254993"><ele></ele><time>2014-8-28T16:41:10Z</time></trkpt>
<trkpt lat="44.2183833" lon="8.3255149"><ele></ele><time>2014-8-28T16:41:13Z</time></trkpt>
<trkpt lat="44.2179338" lon="8.3255656"><ele></ele><time>2014-8-28T16:41:16Z</time></trkpt>
<trkpt lat="44.2173368" lon="8.3257324"><ele></ele><time>2014-8-28T16:41:19Z</time></trkpt>
<trkpt lat="44.2167026" lon="8.3258867"><ele></ele><time>2014-8-28T16:41:22Z</time></trkpt>
<trkpt lat="44.2160929" lon="8.3258304"><ele></ele><time>2014-8-28T16:41:25Z</time></trkpt>
<trkpt lat="44.2156653" lon="8.3257869"><ele></ele><time>2014-8-28T16:41:28Z</time></trkpt>
<trkpt lat="44.2152242" lon="8.3257618"><ele></ele><time>2014-8-28T16:41:31Z</time></trkpt>
<trkpt lat="44.2151093" lon="8.3257733"><ele></ele><time>2014-8-28T16:41:34Z</time></trkpt>
<trkpt lat="44.2145391" lon="8.3257463"><ele></ele><time>2014-8-28T16:41:37Z</time></trkpt>
<trkpt lat="44.2139819" lon="8.3257702"><ele></ele><time>2014-8-28T16:41:40Z</time></trkpt>
<trkpt lat="44.2131461" lon="8.3257049"><ele></ele><time>2014-8-28T16:41:43Z</time></trkpt>
<trkpt lat="44.2131032" lon="8.3256976"><ele></ele><time>2014-8-28T16:41:46Z</time></trkpt>
<trkpt lat="44.2124221" lon="8.3254618"><ele></ele><time>2014-8-28T16:41:49Z</time></trkpt>
<trkpt lat="44.2117044" lon="8.3252654"><ele></ele><time>2014-8-28T16:41:52Z</time></trkpt>
<trkpt lat="44.2108618" lon="8.3251252"><ele></ele><time>2014-8-28T16:41:55Z</time></trkpt>
<trkpt lat="44.2099739" lon="8.3249926"><ele></ele><time>2014-8-28T16:41:58Z</time></trkpt>
<trkpt lat="44.2097513" lon="8.3249683"><ele></ele><time>2014-8-28T16:42:1Z</time></trkpt>
<trkpt lat="44.2095409" lon="8.3248755"><ele></ele><time>2014-8-28T16:42:4Z</time></trkpt>
<trkpt lat="44.2088758" lon="8.3243967"><ele></ele><time>2014-8-28T16:42:7Z</time></trkpt>
<trkpt lat="44.2085153" lon="8.3244410"><ele></ele><time>2014-8-28T16:42:10Z</time></trkpt>
<trkpt lat="44.2078003" lon="8.3250694"><ele></ele><time>2014-8-28T16:42:13Z</time></trkpt>
<trkpt lat="44.2074228" lon="8.3258260"><ele></ele><time>2014-8-28T16:42:16Z</time></trkpt>
<trkpt lat="44.2068166" lon="8.3268697"><ele></ele><time>2014-8-28T16:42:19Z</time></trkpt>
<trkpt lat="44.2065779" lon="8.3271438"><ele></ele><time>2014-8-28T16:42:22Z</time></trkpt>
<trkpt lat="44.2063311" lon="8.3272728"><ele></ele><time>2014-8-28T16:42:25Z</time></trkpt>
<trkpt lat="44.2056573" lon="8.3274371"><ele></ele><time>2014-8-28T16:42:28Z</time></trkpt>
<trkpt lat="44.2055608" lon="8.3274718"><ele></ele><time>2014-8-28T16:42:31Z</time></trkpt>
<trkpt lat="44.2046382" lon="8.3276563"><ele></ele><time>2014-8-28T16:42:34Z</time></trkpt>
<trkpt lat="44.2045247" lon="8.3276754"><ele></ele><time>2014-8-28T16:42:37Z</time></trkpt>
<trkpt lat="44.2042546" lon="8.3277386"><ele></ele><time>2014-8-28T16:42:40Z</time></trkpt>
<trkpt lat="44.2040884" lon="8.3277485"><ele></ele><time>2014-8-28T16:42:43Z</time></trkpt>
<trkpt lat="44.2039821" lon="8.3277308"><ele></ele><time>2014-8-28T16:42:46Z</time></trkpt>
<trkpt lat="44.2036852" lon="8.3275873"><ele></ele><time>2014-8-28T16:42:49Z</time></trkpt>
<trkpt lat="44.2033506" lon="8.3273024"><ele></ele><time>2014-8-28T16:42:52Z</time></trkpt>
<trkpt lat="44.2029539" lon="8.3271570"><ele></ele><time>2014-8-28T16:42:55Z</time></trkpt>
<trkpt lat="44.2021420" lon="8.3272829"><ele></ele><time>2014-8-28T16:42:58Z</time></trkpt>
<trkpt lat="44.2012574" lon="8.3275216"><ele></ele><time>2014-8-28T16:43:1Z</time></trkpt>
<trkpt lat="44.2002170" lon="8.3272737"><ele></ele><time>2014-8-28T16:43:4Z</time></trkpt>
<trkpt lat="44.1996547" lon="8.3274232"><ele></ele><time>2014-8-28T16:43:7Z</time></trkpt>
<trkpt lat="44.1994196" lon="8.3274150"><ele></ele><time>2014-8-28T16:43:10Z</time></trkpt>
<trkpt lat="44.1993001" lon="8.3273822"><ele></ele><time>2014-8-28T16:43:13Z</time></trkpt>
<trkpt lat="44.1984418" lon="8.3271012"><ele></ele><time>2014-8-28T16:43:16Z</time></trkpt>
<trkpt lat="44.1976063" lon="8.3266454"><ele></ele><time>2014-8-28T16:43:19Z</time></trkpt>
<trkpt lat="44.1968997" lon="8.3266125"><ele></ele><time>2014-8-28T16:43:22Z</time></trkpt>
<trkpt lat="44.1962048" lon="8.3266407"><ele></ele><time>2014-8-28T16:43:25Z</time></trkpt>
<trkpt lat="44.1953748" lon="8.3271232"><ele></ele><time>2014-8-28T16:43:28Z</time></trkpt>
<trkpt lat="44.1953219" lon="8.3271577"><ele></ele><time>2014-8-28T16:43:31Z</time></trkpt>
<trkpt lat="44.1950366" lon="8.3272642"><ele></ele><time>2014-8-28T16:43:34Z</time></trkpt>
<trkpt lat="44.1943160" lon="8.3270393"><ele></ele><time>2014-8-28T16:43:37Z</time></trkpt>
<trkpt lat="44.1940249" lon="8.3268741"><ele></ele><time>2014-8-28T16:43:40Z</time></trkpt>
<trkpt lat="44.1937757" lon="8.3268430"><ele></ele><time>2014-8-28T16:43:43Z</time></trkpt>
<trkpt lat="44.1933390" lon="8.3269326"><ele></ele><time>2014-8-28T16:43:46Z</time></trkpt>
<trkpt lat="44.1922997" lon="8.3272041"><ele></ele><time>2014-8-28T16:43:49Z</time></trkpt>
<trkpt lat="44.1916286" lon="8.3272696"><ele></ele><time>2014-8-28T16:43:52Z</time></trkpt>
<trkpt lat="44.1904351" lon="8.3272045"><ele></ele><time>2014-8-28T16:43:55Z</time></trkpt>
<trkpt lat="44.1893707" lon="8.3270370"><ele></ele><time>2014-8-28T16:43:58Z</time></trkpt>
<trkpt lat="44.1886770" lon="8.3270238"><ele></ele><time>2014-8-28T16:44:1Z</time></trkpt>
<trkpt lat="44.1884388" lon="8.3269217"><ele></ele><time>2014-8-28T16:44:4Z</time></trkpt>
<trkpt lat="44.1881738" lon="8.3269788"><ele></ele><time>2014-8-28T16:44:7Z</time></trkpt>
<trkpt lat="44.1873051" lon="8.3275821"><ele></ele><time>2014-8-28T16:44:10Z</time></trkpt>
<trkpt lat="44.1866825" lon="8.3279322"><ele></ele><time>2014-8-28T16:44:13Z</time></trkpt>
<trkpt lat="44.1864080" lon="8.3280697"><ele></ele><time>2014-8-28T16:44:16Z</time></trkpt>
<trkpt lat="44.1861877" lon="8.3280172"><ele></ele><time>2014-8-28T16:44:19Z</time></trkpt>
<trkpt lat="44.1861048" lon="8.3279519"><ele></ele><time>2014-8-28T16:44:22Z</time></trkpt>
<trkpt lat="44.1857790" lon="8.3278675"><ele></ele><time>2014-8-28T16:44:25Z</time></trkpt>
<trkpt lat="44.1850971" lon="8.3276216"><ele></ele><time>2014-8-28T16:44:28Z</time></trkpt>
<trkpt lat="44.1843731" lon="8.3268694"><ele></ele><time>2014-8-28T16:44:31Z</time></trkpt>
<trkpt lat="44.1842933" lon="8.3267294"><ele></ele><time>2014-8-28T16:44:34Z</time></trkpt>
<trkpt lat="44.1840263" lon="8.3265781"><ele></ele><time>2014-8-28T16:44:37Z</time></trkpt>
<trkpt lat="44.1832772" lon="8.3266611"><ele></ele><time>2014-8-28T16:44:40Z</time></trkpt>
<trkpt lat="44.1831425" lon="8.3266687"><ele></ele><time>2014-8-28T16:44:43Z</time></trkpt>
<trkpt lat="44.1829602" lon="8.3268336"><ele></ele><time>2014-8-28T16:44:46Z</time></trkpt>
<trkpt lat="44.1828841" lon="8.3269936"><ele></ele><time>2014-8-28T16:44:49Z</time></trkpt>
<trkpt lat="44.1825371" lon="8.3270523"><ele></ele><time>2014-8-28T16:44:52Z</time></trkpt>
<trkpt lat="44.1820897" lon="8.3265327"><ele></ele><time>2014-8-28T16:44:55Z</time></trkpt>
<trkpt lat="44.1819587" lon="8.3262952"><ele></ele><time>2014-8-28T16:44:58Z</time></trkpt>
<trkpt lat="44.1815384" lon="8.3260823"><ele></ele><time>2014-8-28T16:45:1Z</time></trkpt>
<trkpt lat="44.1810457" lon="8.3258624"><ele></ele><time>2014-8-28T16:45:4Z</time></trkpt>
<trkpt lat="44.1808924" lon="8.3259401"><ele></ele><time>2014-8-28T16:45:7Z</time></trkpt>
<trkpt lat="44.1807544" lon="8.3260669"><ele></ele><time>2014-8-28T16:45:10Z</time></trkpt>
<trkpt lat="44.1804376" lon="8.3265183"><ele></ele><time>2014-8-28T16:45:13Z</time></trkpt>
<trkpt lat="44.1802822" lon="8.3264923"><ele></ele><time>2014-8-28T16:45:16Z</time></trkpt>
<trkpt lat="44.1800428" lon="8.3264297"><ele></ele><time>2014-8-28T16:45:19Z</time></trkpt>
<trkpt lat="44.1796259" lon="8.3266900"><ele></ele><time>2014-8-28T16:45:22Z</time></trkpt>
<trkpt lat="44.1795223" lon="8.3268668"><ele></ele><time>2014-8-28T16:45:25Z</time></trkpt>
<trkpt lat="44.1793676" lon="8.3271371"><ele></ele><time>2014-8-28T16:45:28Z</time></trkpt>
<trkpt lat="44.1791628" lon="8.3275034"><ele></ele><time>2014-8-28T16:45:31Z</time></trkpt>
<trkpt lat="44.1790606" lon="8.3278091"><ele></ele><time>2014-8-28T16:45:34Z</time></trkpt>
<trkpt lat="44.1791010" lon="8.3281556"><ele></ele><time>2014-8-28T16:45:37Z</time></trkpt>
<trkpt lat="44.1792580" lon="8.3286672"><ele></ele><time>2014-8-28T16:45:40Z</time></trkpt>
<trkpt lat="44.1792321" lon="8.3289782"><ele></ele><time>2014-8-28T16:45:43Z</time></trkpt>
<trkpt lat="44.1791715" lon="8.3290108"><ele></ele><time>2014-8-28T16:45:46Z</time></trkpt>
<trkpt lat="44.1789208" lon="8.3291191"><ele></ele><time>2014-8-28T16:45:49Z</time></trkpt>
<trkpt lat="44.1783153" lon="8.3289400"><ele></ele><time>2014-8-28T16:45:52Z</time></trkpt>
<trkpt lat="44.1778484" lon="8.3287636"><ele></ele><time>2014-8-28T16:45:55Z</time></trkpt>
<trkpt lat="44.1775983" lon="8.3287872"><ele></ele><time>2014-8-28T16:45:58Z</time></trkpt>
<trkpt lat="44.1773880" lon="8.3290134"><ele></ele><time>2014-8-28T16:46:1Z</time></trkpt>
<trkpt lat="44.1771990" lon="8.3292507"><ele></ele><time>2014-8-28T16:46:4Z</time></trkpt>
<trkpt lat="44.1768094" lon="8.3292472"><ele></ele><time>2014-8-28T16:46:7Z</time></trkpt>
<trkpt lat="44.1763751" lon="8.3290233"><ele></ele><time>2014-8-28T16:46:10Z</time></trkpt>
<trkpt lat="44.1762246" lon="8.3289833"><ele></ele><time>2014-8-28T16:46:13Z</time></trkpt>
<trkpt lat="44.1761098" lon="8.3289679"><ele></ele><time>2014-8-28T16:46:16Z</time></trkpt>
<trkpt lat="44.1760945" lon="8.3289707"><ele></ele><time>2014-8-28T16:46:19Z</time></trkpt>
<trkpt lat="44.1760879" lon="8.3289698"><ele></ele><time>2014-8-28T16:46:22Z</time></trkpt>
<trkpt lat="44.1761151" lon="8.3289663"><ele></ele><time>2014-8-28T16:46:25Z</time></trkpt>
<trkpt lat="44.1761151" lon="8.3289663"><ele></ele><time>2014-8-28T16:46:28Z</time></trkpt>
</trkseg></trk></gpx>